Time,TemperatureF,DewpointF,PressureIn,WindDirection,WindDirectionDegrees,WindSpeedMPH,WindSpeedGustMPH,Humidity,HourlyPrecipIn,Conditions,Clouds,dailyrainin,SoftwareType,DateUTC
2013-02-12 00:00:00,31.6,27.0,30.12,SW,218,0.0,0.0,83,0.00,,---,0.00,VWS V14.01,2013-02-12 06:00:00,
2013-02-12 00:01:00,31.6,27.0,30.12,SW,218,0.0,0.0,83,0.00,,---,0.00,VWS V14.01,2013-02-12 06:01:00,
2013-02-12 00:02:00,31.6,27.0,30.13,SW,218,0.0,0.0,83,0.00,,---,0.00,VWS V14.01,2013-02-12 06:02:00,
2013-02-12 00:05:00,31.2,26.9,30.13,SW,218,0.0,1.0,84,0.00,,---,0.00,VWS V14.01,2013-02-12 06:05:00,
2013-02-12 00:06:00,31.0,27.0,30.13,SW,218,0.0,1.0,85,0.00,,---,0.00,VWS V14.01,2013-02-12 06:06:00,
2013-02-12 00:07:00,31.0,27.0,30.13,SW,218,0.0,1.0,85,0.00,,---,0.00,VWS V14.01,2013-02-12 06:07:00,
2013-02-12 00:08:00,30.8,26.8,30.13,SW,218,0.0,1.0,85,0.00,,---,0.00,VWS V14.01,2013-02-12 06:08:00,
2013-02-12 00:10:00,30.4,26.4,30.13,SW,218,0.0,1.0,85,0.00,,---,0.00,VWS V14.01,2013-02-12 06:10:00,
2013-02-12 00:11:00,30.4,26.7,30.13,SW,218,0.0,1.0,86,0.00,,---,0.00,VWS V14.01,2013-02-12 06:11:00,
2013-02-12 00:12:00,30.4,26.7,30.13,SW,218,0.0,1.0,86,0.00,,---,0.00,VWS V14.01,2013-02-12 06:12:00,
2013-02-12 00:13:00,30.3,26.6,30.13,SW,218,0.0,1.0,86,0.00,,---,0.00,VWS V14.01,2013-02-12 06:13:00,
2013-02-12 00:15:00,30.4,27.0,30.13,SW,218,0.0,1.0,87,0.00,,---,0.00,VWS V14.01,2013-02-12 06:15:00,
2013-02-12 00:17:00,30.3,26.9,30.13,SW,218,0.0,1.0,87,0.00,,---,0.00,VWS V14.01,2013-02-12 06:17:00,
2013-02-12 00:18:00,30.4,27.0,30.13,SW,218,0.0,1.0,87,0.00,,---,0.00,VWS V14.01,2013-02-12 06:18:00,
2013-02-12 00:20:00,30.5,27.1,30.13,SW,218,0.0,1.0,87,0.00,,---,0.00,VWS V14.01,2013-02-12 06:20:00,
2013-02-12 00:22:00,30.5,27.1,30.13,SW,218,0.0,1.0,87,0.00,,---,0.00,VWS V14.01,2013-02-12 06:22:00,
2013-02-12 00:23:00,30.6,27.2,30.13,SW,218,0.0,1.0,87,0.00,,---,0.00,VWS V14.01,2013-02-12 06:23:00,
2013-02-12 00:25:00,30.6,26.9,30.13,SW,218,0.0,1.0,86,0.00,,---,0.00,VWS V14.01,2013-02-12 06:25:00,
2013-02-12 00:27:00,30.6,26.9,30.13,SW,218,0.0,1.0,86,0.00,,---,0.00,VWS V14.01,2013-02-12 06:27:00,
2013-02-12 00:28:00,30.6,26.9,30.13,SW,218,0.0,0.0,86,0.00,,---,0.00,VWS V14.01,2013-02-12 06:28:00,
2013-02-12 00:30:00,30.6,26.9,30.13,SW,218,0.0,1.0,86,0.00,,---,0.00,VWS V14.01,2013-02-12 06:30:00,
2013-02-12 00:31:00,30.7,26.7,30.13,SW,218,0.0,0.0,85,0.00,,---,0.00,VWS V14.01,2013-02-12 06:31:00,
2013-02-12 00:32:00,30.7,26.7,30.12,SW,218,0.0,0.0,85,0.00,,---,0.00,VWS V14.01,2013-02-12 06:32:00,
2013-02-12 00:33:00,30.7,26.7,30.12,SW,218,0.0,0.0,85,0.00,,---,0.00,VWS V14.01,2013-02-12 06:33:00,
2013-02-12 00:36:00,30.6,26.6,30.13,SW,218,0.0,0.0,85,0.00,,---,0.00,VWS V14.01,2013-02-12 06:36:00,
2013-02-12 00:37:00,30.6,26.9,30.13,SW,218,0.0,0.0,86,0.00,,---,0.00,VWS V14.01,2013-02-12 06:37:00,
2013-02-12 00:38:00,30.5,26.8,30.13,SW,218,0.0,0.0,86,0.00,,---,0.00,VWS V14.01,2013-02-12 06:38:00,
2013-02-12 00:41:00,30.2,26.8,30.12,SW,218,0.0,0.0,87,0.00,,---,0.00,VWS V14.01,2013-02-12 06:41:00,
2013-02-12 00:42:00,30.2,26.8,30.12,SW,218,0.0,0.0,87,0.00,,---,0.00,VWS V14.01,2013-02-12 06:42:00,
2013-02-12 00:43:00,30.2,27.1,30.12,SW,218,0.0,0.0,88,0.00,,---,0.00,VWS V14.01,2013-02-12 06:43:00,
2013-02-12 00:46:00,30.2,27.1,30.12,SW,218,0.0,0.0,88,0.00,,---,0.00,VWS V14.01,2013-02-12 06:46:00,
2013-02-12 00:47:00,30.2,27.1,30.12,SW,218,0.0,0.0,88,0.00,,---,0.00,VWS V14.01,2013-02-12 06:47:00,
2013-02-12 00:48:00,30.2,26.8,30.12,SW,218,0.0,0.0,87,0.00,,---,0.00,VWS V14.01,2013-02-12 06:48:00,
2013-02-12 00:51:00,30.1,26.7,30.12,SW,218,0.0,0.0,87,0.00,,---,0.00,VWS V14.01,2013-02-12 06:51:00,
2013-02-12 00:52:00,30.1,26.7,30.12,SW,218,0.0,0.0,87,0.00,,---,0.00,VWS V14.01,2013-02-12 06:52:00,
2013-02-12 00:53:00,30.0,26.9,30.12,SW,218,0.0,0.0,88,0.00,,---,0.00,VWS V14.01,2013-02-12 06:53:00,
2013-02-12 00:56:00,29.9,26.8,30.12,SW,218,0.0,0.0,88,0.00,,---,0.00,VWS V14.01,2013-02-12 06:56:00,
2013-02-12 00:57:00,29.9,26.8,30.12,SW,218,0.0,0.0,88,0.00,,---,0.00,VWS V14.01,2013-02-12 06:57:00,
2013-02-12 00:58:00,29.9,26.8,30.12,SW,218,0.0,0.0,88,0.00,,---,0.00,VWS V14.01,2013-02-12 06:58:00,
2013-02-12 00:59:00,29.9,27.1,30.12,SW,218,0.0,0.0,89,0.00,,---,0.00,VWS V14.01,2013-02-12 06:59:00,
2013-02-12 01:00:00,29.9,26.8,30.12,SW,218,0.0,0.0,88,0.00,,---,0.00,VWS V14.01,2013-02-12 07:00:00,
2013-02-12 01:01:00,29.8,27.0,30.13,SW,218,0.0,0.0,89,0.00,,---,0.00,VWS V14.01,2013-02-12 07:01:00,
2013-02-12 01:02:00,29.7,26.9,30.13,SW,218,0.0,0.0,89,0.00,,---,0.00,VWS V14.01,2013-02-12 07:02:00,
2013-02-12 01:03:00,29.7,26.9,30.13,SW,218,0.0,0.0,89,0.00,,---,0.00,VWS V14.01,2013-02-12 07:03:00,
2013-02-12 01:04:00,29.7,26.9,30.13,SW,218,0.0,0.0,89,0.00,,---,0.00,VWS V14.01,2013-02-12 07:04:00,
2013-02-12 01:06:00,29.6,26.8,30.13,SW,218,0.0,0.0,89,0.00,,---,0.00,VWS V14.01,2013-02-12 07:06:00,
2013-02-12 01:07:00,29.6,26.8,30.13,SW,218,0.0,0.0,89,0.00,,---,0.00,VWS V14.01,2013-02-12 07:07:00,
2013-02-12 01:08:00,29.6,26.8,30.13,SW,218,0.0,0.0,89,0.00,,---,0.00,VWS V14.01,2013-02-12 07:08:00,
2013-02-12 01:09:00,29.6,26.8,30.13,SW,218,0.0,0.0,89,0.00,,---,0.00,VWS V14.01,2013-02-12 07:09:00,
2013-02-12 01:12:00,29.5,26.7,30.13,SW,218,0.0,0.0,89,0.00,,---,0.00,VWS V14.01,2013-02-12 07:12:00,
2013-02-12 01:13:00,29.5,26.9,30.13,SW,218,0.0,0.0,90,0.00,,---,0.00,VWS V14.01,2013-02-12 07:13:00,
2013-02-12 01:14:00,29.4,26.8,30.13,SW,218,0.0,0.0,90,0.00,,---,0.00,VWS V14.01,2013-02-12 07:14:00,
2013-02-12 01:17:00,29.3,26.7,30.13,SW,218,0.0,0.0,90,0.00,,---,0.00,VWS V14.01,2013-02-12 07:17:00,
2013-02-12 01:18:00,29.2,26.6,30.13,SW,218,0.0,0.0,90,0.00,,---,0.00,VWS V14.01,2013-02-12 07:18:00,
2013-02-12 01:19:00,29.2,26.6,30.13,SW,218,0.0,0.0,90,0.00,,---,0.00,VWS V14.01,2013-02-12 07:19:00,
2013-02-12 01:22:00,29.1,26.5,30.13,SW,218,0.0,0.0,90,0.00,,---,0.00,VWS V14.01,2013-02-12 07:22:00,
2013-02-12 01:23:00,29.2,26.6,30.13,SW,218,0.0,0.0,90,0.00,,---,0.00,VWS V14.01,2013-02-12 07:23:00,
2013-02-12 01:24:00,29.2,26.6,30.13,SW,218,0.0,0.0,90,0.00,,---,0.00,VWS V14.01,2013-02-12 07:24:00,
2013-02-12 01:27:00,29.2,26.6,30.13,SW,218,0.0,0.0,90,0.00,,---,0.00,VWS V14.01,2013-02-12 07:27:00,
2013-02-12 01:28:00,29.1,26.5,30.13,SW,218,0.0,0.0,90,0.00,,---,0.00,VWS V14.01,2013-02-12 07:28:00,
2013-02-12 01:29:00,29.2,26.6,30.13,SW,218,0.0,0.0,90,0.00,,---,0.00,VWS V14.01,2013-02-12 07:29:00,
2013-02-12 01:30:00,29.2,26.6,30.13,SW,218,0.0,0.0,90,0.00,,---,0.00,VWS V14.01,2013-02-12 07:30:00,
2013-02-12 01:32:00,29.1,26.3,30.13,SW,218,0.0,0.0,89,0.00,,---,0.00,VWS V14.01,2013-02-12 07:32:00,
2013-02-12 01:34:00,29.1,26.3,30.13,SW,218,0.0,0.0,89,0.00,,---,0.00,VWS V14.01,2013-02-12 07:34:00,
2013-02-12 01:37:00,29.1,26.3,30.13,SW,218,0.0,0.0,89,0.00,,---,0.00,VWS V14.01,2013-02-12 07:37:00,
2013-02-12 01:39:00,29.1,26.3,30.13,SW,218,0.0,0.0,89,0.00,,---,0.00,VWS V14.01,2013-02-12 07:39:00,
2013-02-12 01:40:00,29.1,26.3,30.13,SW,218,0.0,0.0,89,0.00,,---,0.00,VWS V14.01,2013-02-12 07:40:00,
2013-02-12 01:42:00,29.0,26.2,30.13,SW,218,0.0,0.0,89,0.00,,---,0.00,VWS V14.01,2013-02-12 07:42:00,
2013-02-12 01:44:00,29.0,26.2,30.13,SW,218,0.0,0.0,89,0.00,,---,0.00,VWS V14.01,2013-02-12 07:44:00,
2013-02-12 01:45:00,29.0,26.2,30.13,SW,218,0.0,0.0,89,0.00,,---,0.00,VWS V14.01,2013-02-12 07:45:00,
2013-02-12 01:47:00,29.2,26.4,30.13,SW,218,0.0,0.0,89,0.00,,---,0.00,VWS V14.01,2013-02-12 07:47:00,
2013-02-12 01:49:00,29.3,26.5,30.13,SW,218,0.0,0.0,89,0.00,,---,0.00,VWS V14.01,2013-02-12 07:49:00,
2013-02-12 01:50:00,29.3,26.5,30.13,SW,218,0.0,0.0,89,0.00,,---,0.00,VWS V14.01,2013-02-12 07:50:00,
2013-02-12 01:53:00,29.3,26.5,30.13,SW,218,0.0,0.0,89,0.00,,---,0.00,VWS V14.01,2013-02-12 07:53:00,
2013-02-12 01:55:00,29.1,26.3,30.13,SW,218,0.0,0.0,89,0.00,,---,0.00,VWS V14.01,2013-02-12 07:55:00,
2013-02-12 01:58:00,28.7,25.9,30.13,SW,218,0.0,0.0,89,0.00,,---,0.00,VWS V14.01,2013-02-12 07:58:00,
2013-02-12 02:00:00,28.5,25.7,30.13,SW,218,0.0,0.0,89,0.00,,---,0.00,VWS V14.01,2013-02-12 08:00:00,
2013-02-12 02:04:00,28.5,26.0,30.13,SW,218,0.0,0.0,90,0.00,,---,0.00,VWS V14.01,2013-02-12 08:04:00,
2013-02-12 02:05:00,28.5,26.0,30.13,SW,218,0.0,0.0,90,0.00,,---,0.00,VWS V14.01,2013-02-12 08:05:00,
2013-02-12 02:09:00,28.5,26.2,30.13,SW,218,0.0,0.0,91,0.00,,---,0.00,VWS V14.01,2013-02-12 08:09:00,
2013-02-12 02:10:00,28.6,26.3,30.13,SW,218,0.0,0.0,91,0.00,,---,0.00,VWS V14.01,2013-02-12 08:10:00,
2013-02-12 02:14:00,28.7,26.4,30.13,SW,218,0.0,0.0,91,0.00,,---,0.00,VWS V14.01,2013-02-12 08:14:00,
2013-02-12 02:15:00,28.7,26.4,30.13,SW,218,0.0,0.0,91,0.00,,---,0.00,VWS V14.01,2013-02-12 08:15:00,
2013-02-12 02:19:00,28.7,26.1,30.13,SW,218,0.0,0.0,90,0.00,,---,0.00,VWS V14.01,2013-02-12 08:19:00,
2013-02-12 02:20:00,28.7,25.9,30.13,SW,218,0.0,0.0,89,0.00,,---,0.00,VWS V14.01,2013-02-12 08:20:00,
2013-02-12 02:21:00,28.6,25.8,30.13,SW,218,0.0,0.0,89,0.00,,---,0.00,VWS V14.01,2013-02-12 08:21:00,
2013-02-12 02:24:00,28.5,25.7,30.13,SW,218,0.0,0.0,89,0.00,,---,0.00,VWS V14.01,2013-02-12 08:24:00,
2013-02-12 02:25:00,28.4,25.9,30.13,SW,218,0.0,0.0,90,0.00,,---,0.00,VWS V14.01,2013-02-12 08:25:00,
2013-02-12 02:26:00,28.5,26.0,30.13,SW,218,0.0,0.0,90,0.00,,---,0.00,VWS V14.01,2013-02-12 08:26:00,
2013-02-12 02:29:00,28.4,25.9,30.13,SW,218,0.0,0.0,90,0.00,,---,0.00,VWS V14.01,2013-02-12 08:29:00,
2013-02-12 02:30:00,28.3,25.8,30.13,SW,218,0.0,0.0,90,0.00,,---,0.00,VWS V14.01,2013-02-12 08:30:00,
2013-02-12 02:31:00,28.3,25.8,30.13,SW,218,0.0,0.0,90,0.00,,---,0.00,VWS V14.01,2013-02-12 08:31:00,
2013-02-12 02:34:00,28.1,25.5,30.13,SW,218,0.0,0.0,90,0.00,,---,0.00,VWS V14.01,2013-02-12 08:34:00,
2013-02-12 02:36:00,28.2,25.6,30.13,SW,218,0.0,0.0,90,0.00,,---,0.00,VWS V14.01,2013-02-12 08:36:00,
2013-02-12 02:39:00,28.2,25.6,30.12,SW,218,0.0,0.0,90,0.00,,---,0.00,VWS V14.01,2013-02-12 08:39:00,
2013-02-12 02:41:00,28.2,25.6,30.12,SW,218,0.0,0.0,90,0.00,,---,0.00,VWS V14.01,2013-02-12 08:41:00,
2013-02-12 02:44:00,28.1,25.5,30.12,SW,218,0.0,0.0,90,0.00,,---,0.00,VWS V14.01,2013-02-12 08:44:00,
2013-02-12 02:46:00,28.2,25.6,30.13,SW,218,0.0,0.0,90,0.00,,---,0.00,VWS V14.01,2013-02-12 08:46:00,
2013-02-12 02:47:00,28.2,25.6,30.12,SW,218,0.0,0.0,90,0.00,,---,0.00,VWS V14.01,2013-02-12 08:47:00,
2013-02-12 02:50:00,28.1,25.5,30.12,SW,218,0.0,0.0,90,0.00,,---,0.00,VWS V14.01,2013-02-12 08:50:00,
2013-02-12 02:51:00,28.1,25.5,30.12,SW,218,0.0,0.0,90,0.00,,---,0.00,VWS V14.01,2013-02-12 08:51:00,
2013-02-12 02:52:00,28.1,25.5,30.12,SW,218,0.0,0.0,90,0.00,,---,0.00,VWS V14.01,2013-02-12 08:52:00,
2013-02-12 02:55:00,28.3,25.8,30.12,SW,218,0.0,0.0,90,0.00,,---,0.00,VWS V14.01,2013-02-12 08:55:00,
2013-02-12 02:56:00,28.3,26.0,30.12,SW,218,0.0,0.0,91,0.00,,---,0.00,VWS V14.01,2013-02-12 08:56:00,
2013-02-12 02:57:00,28.3,26.0,30.12,SW,218,0.0,0.0,91,0.00,,---,0.00,VWS V14.01,2013-02-12 08:57:00,
2013-02-12 03:00:00,28.3,25.8,30.12,SW,218,0.0,0.0,90,0.00,,---,0.00,VWS V14.01,2013-02-12 09:00:00,
2013-02-12 03:02:00,28.3,25.8,30.12,SW,218,0.0,0.0,90,0.00,,---,0.00,VWS V14.01,2013-02-12 09:02:00,
2013-02-12 03:06:00,28.3,25.8,30.12,SW,218,0.0,0.0,90,0.00,,---,0.00,VWS V14.01,2013-02-12 09:06:00,
2013-02-12 03:07:00,28.3,25.8,30.12,SW,218,0.0,0.0,90,0.00,,---,0.00,VWS V14.01,2013-02-12 09:07:00,
2013-02-12 03:11:00,28.1,25.5,30.12,SW,218,0.0,0.0,90,0.00,,---,0.00,VWS V14.01,2013-02-12 09:11:00,
2013-02-12 03:12:00,28.1,25.5,30.12,SW,218,0.0,0.0,90,0.00,,---,0.00,VWS V14.01,2013-02-12 09:12:00,
2013-02-12 03:13:00,28.1,25.5,30.12,SW,218,0.0,0.0,90,0.00,,---,0.00,VWS V14.01,2013-02-12 09:13:00,
2013-02-12 03:16:00,28.0,25.5,30.12,SW,218,0.0,0.0,90,0.00,,---,0.00,VWS V14.01,2013-02-12 09:16:00,
2013-02-12 03:17:00,27.9,25.4,30.12,SW,218,0.0,0.0,90,0.00,,---,0.00,VWS V14.01,2013-02-12 09:17:00,
2013-02-12 03:18:00,27.9,25.4,30.12,SW,218,0.0,0.0,90,0.00,,---,0.00,VWS V14.01,2013-02-12 09:18:00,
2013-02-12 03:21:00,27.6,25.3,30.12,SW,218,0.0,0.0,91,0.00,,---,0.00,VWS V14.01,2013-02-12 09:21:00,
2013-02-12 03:22:00,27.5,25.2,30.12,SW,218,0.0,0.0,91,0.00,,---,0.00,VWS V14.01,2013-02-12 09:22:00,
2013-02-12 03:23:00,27.4,25.1,30.12,SW,218,0.0,0.0,91,0.00,,---,0.00,VWS V14.01,2013-02-12 09:23:00,
2013-02-12 03:26:00,27.3,25.0,30.12,SW,218,0.0,0.0,91,0.00,,---,0.00,VWS V14.01,2013-02-12 09:26:00,
2013-02-12 03:27:00,27.3,25.0,30.12,SW,218,0.0,0.0,91,0.00,,---,0.00,VWS V14.01,2013-02-12 09:27:00,
2013-02-12 03:29:00,27.4,25.4,30.12,SW,218,0.0,0.0,92,0.00,,---,0.00,VWS V14.01,2013-02-12 09:29:00,
2013-02-12 03:30:00,27.3,25.0,30.12,SW,218,0.0,0.0,91,0.00,,---,0.00,VWS V14.01,2013-02-12 09:30:00,
2013-02-12 03:31:00,27.3,25.3,30.12,SW,218,0.0,0.0,92,0.00,,---,0.00,VWS V14.01,2013-02-12 09:31:00,
2013-02-12 03:32:00,27.3,25.3,30.12,SW,218,0.0,0.0,92,0.00,,---,0.00,VWS V14.01,2013-02-12 09:32:00,
2013-02-12 03:33:00,27.4,25.4,30.12,SW,218,0.0,0.0,92,0.00,,---,0.00,VWS V14.01,2013-02-12 09:33:00,
2013-02-12 03:34:00,27.4,25.4,30.12,SW,218,0.0,0.0,92,0.00,,---,0.00,VWS V14.01,2013-02-12 09:34:00,
2013-02-12 03:36:00,27.5,25.5,30.12,SW,218,0.0,0.0,92,0.00,,---,0.00,VWS V14.01,2013-02-12 09:36:00,
2013-02-12 03:37:00,27.5,25.5,30.12,SW,218,0.0,0.0,92,0.00,,---,0.00,VWS V14.01,2013-02-12 09:37:00,
2013-02-12 03:38:00,27.5,25.5,30.12,SW,218,0.0,0.0,92,0.00,,---,0.00,VWS V14.01,2013-02-12 09:38:00,
2013-02-12 03:39:00,27.6,25.6,30.12,SW,218,0.0,0.0,92,0.00,,---,0.00,VWS V14.01,2013-02-12 09:39:00,
2013-02-12 03:41:00,27.5,25.5,30.12,SW,218,0.0,0.0,92,0.00,,---,0.00,VWS V14.01,2013-02-12 09:41:00,
2013-02-12 03:42:00,27.5,25.5,30.12,SW,218,0.0,0.0,92,0.00,,---,0.00,VWS V14.01,2013-02-12 09:42:00,
2013-02-12 03:43:00,27.4,25.4,30.12,SW,218,0.0,0.0,92,0.00,,---,0.00,VWS V14.01,2013-02-12 09:43:00,
2013-02-12 03:44:00,27.3,25.3,30.12,SW,218,0.0,0.0,92,0.00,,---,0.00,VWS V14.01,2013-02-12 09:44:00,
2013-02-12 03:46:00,27.0,25.0,30.12,SW,218,0.0,0.0,92,0.00,,---,0.00,VWS V14.01,2013-02-12 09:46:00,
2013-02-12 03:48:00,26.9,24.9,30.12,SW,218,0.0,0.0,92,0.00,,---,0.00,VWS V14.01,2013-02-12 09:48:00,
2013-02-12 03:49:00,26.9,24.9,30.12,SW,218,0.0,0.0,92,0.00,,---,0.00,VWS V14.01,2013-02-12 09:49:00,
2013-02-12 03:51:00,26.9,24.9,30.12,SW,218,0.0,0.0,92,0.00,,---,0.00,VWS V14.01,2013-02-12 09:51:00,
2013-02-12 03:53:00,27.0,25.0,30.12,SW,218,0.0,0.0,92,0.00,,---,0.00,VWS V14.01,2013-02-12 09:53:00,
2013-02-12 03:54:00,27.0,25.2,30.12,SW,218,0.0,0.0,93,0.00,,---,0.00,VWS V14.01,2013-02-12 09:54:00,
2013-02-12 03:57:00,27.0,25.2,30.12,SW,218,0.0,0.0,93,0.00,,---,0.00,VWS V14.01,2013-02-12 09:57:00,
2013-02-12 03:58:00,27.0,25.2,30.12,SW,218,0.0,0.0,93,0.00,,---,0.00,VWS V14.01,2013-02-12 09:58:00,
2013-02-12 03:59:00,27.0,25.2,30.12,SW,218,0.0,0.0,93,0.00,,---,0.00,VWS V14.01,2013-02-12 09:59:00,
2013-02-12 04:00:00,27.0,25.2,30.12,SW,218,0.0,0.0,93,0.00,,---,0.00,VWS V14.01,2013-02-12 10:00:00,
2013-02-12 04:02:00,26.9,25.1,30.13,SW,218,0.0,0.0,93,0.00,,---,0.00,VWS V14.01,2013-02-12 10:02:00,
2013-02-12 04:03:00,26.9,25.1,30.13,SW,218,0.0,0.0,93,0.00,,---,0.00,VWS V14.01,2013-02-12 10:03:00,
2013-02-12 04:04:00,26.9,25.1,30.13,SW,218,0.0,0.0,93,0.00,,---,0.00,VWS V14.01,2013-02-12 10:04:00,
2013-02-12 04:05:00,26.9,25.1,30.13,SW,218,0.0,0.0,93,0.00,,---,0.00,VWS V14.01,2013-02-12 10:05:00,
2013-02-12 04:07:00,26.9,25.1,30.13,SW,218,0.0,0.0,93,0.00,,---,0.00,VWS V14.01,2013-02-12 10:07:00,
2013-02-12 04:08:00,26.9,25.1,30.13,SW,218,0.0,0.0,93,0.00,,---,0.00,VWS V14.01,2013-02-12 10:08:00,
2013-02-12 04:09:00,26.9,25.1,30.13,SW,218,0.0,0.0,93,0.00,,---,0.00,VWS V14.01,2013-02-12 10:09:00,
2013-02-12 04:10:00,26.9,25.1,30.13,SW,218,0.0,0.0,93,0.00,,---,0.00,VWS V14.01,2013-02-12 10:10:00,
2013-02-12 04:12:00,26.8,25.0,30.13,SW,218,0.0,0.0,93,0.00,,---,0.00,VWS V14.01,2013-02-12 10:12:00,
2013-02-12 04:13:00,26.8,25.0,30.13,SW,218,0.0,0.0,93,0.00,,---,0.00,VWS V14.01,2013-02-12 10:13:00,
2013-02-12 04:14:00,26.8,25.0,30.13,SW,218,0.0,0.0,93,0.00,,---,0.00,VWS V14.01,2013-02-12 10:14:00,
2013-02-12 04:15:00,26.9,25.1,30.13,SW,218,0.0,0.0,93,0.00,,---,0.00,VWS V14.01,2013-02-12 10:15:00,
2013-02-12 04:17:00,27.0,25.2,30.13,SW,218,0.0,0.0,93,0.00,,---,0.00,VWS V14.01,2013-02-12 10:17:00,
2013-02-12 04:18:00,27.0,25.2,30.13,SW,218,0.0,0.0,93,0.00,,---,0.00,VWS V14.01,2013-02-12 10:18:00,
2013-02-12 04:19:00,27.0,25.0,30.13,SW,218,0.0,0.0,92,0.00,,---,0.00,VWS V14.01,2013-02-12 10:19:00,
2013-02-12 04:20:00,27.0,25.0,30.13,SW,218,0.0,0.0,92,0.00,,---,0.00,VWS V14.01,2013-02-12 10:20:00,
2013-02-12 04:22:00,27.1,25.4,30.13,SW,218,0.0,0.0,93,0.00,,---,0.00,VWS V14.01,2013-02-12 10:22:00,
2013-02-12 04:23:00,27.1,25.4,30.13,SW,218,0.0,0.0,93,0.00,,---,0.00,VWS V14.01,2013-02-12 10:23:00,
2013-02-12 04:24:00,27.2,25.5,30.13,SW,218,0.0,0.0,93,0.00,,---,0.00,VWS V14.01,2013-02-12 10:24:00,
2013-02-12 04:25:00,27.2,25.5,30.13,SW,218,0.0,0.0,93,0.00,,---,0.00,VWS V14.01,2013-02-12 10:25:00,
2013-02-12 04:27:00,27.2,25.2,30.13,SW,218,0.0,0.0,92,0.00,,---,0.00,VWS V14.01,2013-02-12 10:27:00,
2013-02-12 04:28:00,27.1,25.1,30.13,SW,218,0.0,0.0,92,0.00,,---,0.00,VWS V14.01,2013-02-12 10:28:00,
2013-02-12 04:29:00,27.0,25.0,30.13,SW,218,0.0,0.0,92,0.00,,---,0.00,VWS V14.01,2013-02-12 10:29:00,
2013-02-12 04:30:00,27.0,25.0,30.13,SW,218,0.0,0.0,92,0.00,,---,0.00,VWS V14.01,2013-02-12 10:30:00,
2013-02-12 04:33:00,26.9,24.9,30.13,SW,218,0.0,0.0,92,0.00,,---,0.00,VWS V14.01,2013-02-12 10:33:00,
2013-02-12 04:35:00,26.8,24.8,30.12,SW,218,0.0,0.0,92,0.00,,---,0.00,VWS V14.01,2013-02-12 10:35:00,
2013-02-12 04:38:00,26.8,24.8,30.13,SW,218,0.0,0.0,92,0.00,,---,0.00,VWS V14.01,2013-02-12 10:38:00,
2013-02-12 04:40:00,26.8,25.0,30.13,SW,218,0.0,0.0,93,0.00,,---,0.00,VWS V14.01,2013-02-12 10:40:00,
2013-02-12 04:43:00,26.9,25.1,30.13,SW,218,0.0,0.0,93,0.00,,---,0.00,VWS V14.01,2013-02-12 10:43:00,
2013-02-12 04:45:00,26.9,25.1,30.13,SW,218,0.0,0.0,93,0.00,,---,0.00,VWS V14.01,2013-02-12 10:45:00,
2013-02-12 04:46:00,26.9,25.1,30.13,SW,218,0.0,0.0,93,0.00,,---,0.00,VWS V14.01,2013-02-12 10:46:00,
2013-02-12 04:48:00,26.9,25.1,30.13,SW,218,0.0,0.0,93,0.00,,---,0.00,VWS V14.01,2013-02-12 10:48:00,
2013-02-12 04:50:00,26.9,25.1,30.13,SW,218,0.0,0.0,93,0.00,,---,0.00,VWS V14.01,2013-02-12 10:50:00,
2013-02-12 04:51:00,26.9,25.1,30.13,SW,218,0.0,0.0,93,0.00,,---,0.00,VWS V14.01,2013-02-12 10:51:00,
2013-02-12 04:53:00,26.9,25.1,30.13,SW,218,0.0,0.0,93,0.00,,---,0.00,VWS V14.01,2013-02-12 10:53:00,
2013-02-12 04:55:00,26.8,25.0,30.13,SW,218,0.0,0.0,93,0.00,,---,0.00,VWS V14.01,2013-02-12 10:55:00,
2013-02-12 04:56:00,26.8,25.0,30.13,SW,218,0.0,0.0,93,0.00,,---,0.00,VWS V14.01,2013-02-12 10:56:00,
2013-02-12 04:58:00,26.7,25.0,30.13,SW,218,0.0,0.0,93,0.00,,---,0.00,VWS V14.01,2013-02-12 10:58:00,
2013-02-12 05:00:00,26.6,24.9,30.13,SW,218,0.0,0.0,93,0.00,,---,0.00,VWS V14.01,2013-02-12 11:00:00,
2013-02-12 05:01:00,26.6,24.9,30.12,SW,218,0.0,0.0,93,0.00,,---,0.00,VWS V14.01,2013-02-12 11:01:00,
2013-02-12 05:03:00,26.4,24.6,30.12,SW,218,0.0,0.0,93,0.00,,---,0.00,VWS V14.01,2013-02-12 11:03:00,
2013-02-12 05:05:00,26.2,24.5,30.12,SW,218,0.0,0.0,93,0.00,,---,0.00,VWS V14.01,2013-02-12 11:05:00,
2013-02-12 05:06:00,26.1,24.4,30.12,SW,218,0.0,0.0,93,0.00,,---,0.00,VWS V14.01,2013-02-12 11:06:00,
2013-02-12 05:08:00,25.9,24.2,30.12,SW,218,0.0,0.0,93,0.00,,---,0.00,VWS V14.01,2013-02-12 11:08:00,
2013-02-12 05:09:00,25.9,24.2,30.12,SW,218,0.0,0.0,93,0.00,,---,0.00,VWS V14.01,2013-02-12 11:09:00,
2013-02-12 05:11:00,25.9,24.2,30.12,SW,218,0.0,0.0,93,0.00,,---,0.00,VWS V14.01,2013-02-12 11:11:00,
2013-02-12 05:13:00,26.1,24.4,30.12,SW,218,0.0,0.0,93,0.00,,---,0.00,VWS V14.01,2013-02-12 11:13:00,
2013-02-12 05:14:00,26.1,24.4,30.12,SW,218,0.0,0.0,93,0.00,,---,0.00,VWS V14.01,2013-02-12 11:14:00,
2013-02-12 05:16:00,26.2,24.7,30.12,SW,218,0.0,0.0,94,0.00,,---,0.00,VWS V14.01,2013-02-12 11:16:00,
2013-02-12 05:19:00,26.2,24.7,30.12,SW,218,0.0,0.0,94,0.00,,---,0.00,VWS V14.01,2013-02-12 11:19:00,
2013-02-12 05:21:00,26.0,24.3,30.12,SW,218,0.0,0.0,93,0.00,,---,0.00,VWS V14.01,2013-02-12 11:21:00,
2013-02-12 05:24:00,26.1,24.6,30.12,SW,218,0.0,0.0,94,0.00,,---,0.00,VWS V14.01,2013-02-12 11:24:00,
2013-02-12 05:26:00,26.2,24.7,30.11,SW,218,0.0,0.0,94,0.00,,---,0.00,VWS V14.01,2013-02-12 11:26:00,
2013-02-12 05:27:00,26.2,24.7,30.11,SW,218,0.0,0.0,94,0.00,,---,0.00,VWS V14.01,2013-02-12 11:27:00,
2013-02-12 05:29:00,26.2,24.7,30.11,SW,218,0.0,0.0,94,0.00,,---,0.00,VWS V14.01,2013-02-12 11:29:00,
2013-02-12 05:30:00,26.2,24.7,30.11,SW,218,0.0,0.0,94,0.00,,---,0.00,VWS V14.01,2013-02-12 11:30:00,
2013-02-12 05:31:00,26.2,24.7,30.11,SW,218,0.0,0.0,94,0.00,,---,0.00,VWS V14.01,2013-02-12 11:31:00,
2013-02-12 05:32:00,26.2,24.7,30.11,SW,218,0.0,0.0,94,0.00,,---,0.00,VWS V14.01,2013-02-12 11:32:00,
2013-02-12 05:34:00,26.2,24.7,30.11,SW,218,0.0,0.0,94,0.00,,---,0.00,VWS V14.01,2013-02-12 11:34:00,
2013-02-12 05:36:00,26.0,24.5,30.11,SW,218,0.0,0.0,94,0.00,,---,0.00,VWS V14.01,2013-02-12 11:36:00,
2013-02-12 05:37:00,26.0,24.3,30.11,SW,218,0.0,0.0,93,0.00,,---,0.00,VWS V14.01,2013-02-12 11:37:00,
2013-02-12 05:39:00,25.8,24.1,30.11,SW,218,0.0,0.0,93,0.00,,---,0.00,VWS V14.01,2013-02-12 11:39:00,
2013-02-12 05:41:00,25.8,24.1,30.11,SW,218,0.0,0.0,93,0.00,,---,0.00,VWS V14.01,2013-02-12 11:41:00,
2013-02-12 05:42:00,25.8,24.3,30.11,SW,218,0.0,0.0,94,0.00,,---,0.00,VWS V14.01,2013-02-12 11:42:00,
2013-02-12 05:44:00,25.9,24.4,30.11,SW,218,0.0,0.0,94,0.00,,---,0.00,VWS V14.01,2013-02-12 11:44:00,
2013-02-12 05:47:00,25.8,24.3,30.11,SW,218,0.0,0.0,94,0.00,,---,0.00,VWS V14.01,2013-02-12 11:47:00,
2013-02-12 05:49:00,25.9,24.4,30.11,SW,218,0.0,0.0,94,0.00,,---,0.00,VWS V14.01,2013-02-12 11:49:00,
2013-02-12 05:52:00,25.9,24.4,30.11,SW,218,0.0,0.0,94,0.00,,---,0.00,VWS V14.01,2013-02-12 11:52:00,
2013-02-12 05:54:00,25.8,24.3,30.11,SW,218,0.0,0.0,94,0.00,,---,0.00,VWS V14.01,2013-02-12 11:54:00,
2013-02-12 05:55:00,25.8,24.3,30.11,SW,218,0.0,0.0,94,0.00,,---,0.00,VWS V14.01,2013-02-12 11:55:00,
2013-02-12 05:57:00,25.6,24.1,30.11,SW,218,0.0,0.0,94,0.00,,---,0.00,VWS V14.01,2013-02-12 11:57:00,
2013-02-12 05:59:00,25.3,23.6,30.11,SW,218,0.0,0.0,93,0.00,,---,0.00,VWS V14.01,2013-02-12 11:59:00,
2013-02-12 06:00:00,25.3,23.6,30.11,SW,218,0.0,0.0,93,0.00,,---,0.00,VWS V14.01,2013-02-12 12:00:00,
2013-02-12 06:02:00,25.3,23.8,30.11,SW,218,0.0,0.0,94,0.00,,---,0.00,VWS V14.01,2013-02-12 12:02:00,
2013-02-12 06:04:00,25.3,23.8,30.11,SW,218,0.0,0.0,94,0.00,,---,0.00,VWS V14.01,2013-02-12 12:04:00,
2013-02-12 06:06:00,25.4,23.9,30.11,SW,218,0.0,0.0,94,0.00,,---,0.00,VWS V14.01,2013-02-12 12:06:00,
2013-02-12 06:07:00,25.4,23.9,30.11,SW,218,0.0,0.0,94,0.00,,---,0.00,VWS V14.01,2013-02-12 12:07:00,
2013-02-12 06:08:00,25.4,23.9,30.11,SW,218,0.0,0.0,94,0.00,,---,0.00,VWS V14.01,2013-02-12 12:08:00,
2013-02-12 06:09:00,25.4,23.9,30.11,SW,218,0.0,0.0,94,0.00,,---,0.00,VWS V14.01,2013-02-12 12:09:00,
2013-02-12 06:11:00,25.4,23.9,30.11,SW,218,0.0,0.0,94,0.00,,---,0.00,VWS V14.01,2013-02-12 12:11:00,
2013-02-12 06:13:00,25.4,23.9,30.11,SW,218,0.0,0.0,94,0.00,,---,0.00,VWS V14.01,2013-02-12 12:13:00,
2013-02-12 06:15:00,25.4,23.9,30.10,SW,218,0.0,0.0,94,0.00,,---,0.00,VWS V14.01,2013-02-12 12:15:00,
2013-02-12 06:16:00,25.4,23.9,30.10,SW,218,0.0,0.0,94,0.00,,---,0.00,VWS V14.01,2013-02-12 12:16:00,
2013-02-12 06:18:00,25.4,23.9,30.10,SW,218,0.0,0.0,94,0.00,,---,0.00,VWS V14.01,2013-02-12 12:18:00,
2013-02-12 06:20:00,25.4,23.9,30.10,SW,218,0.0,0.0,94,0.00,,---,0.00,VWS V14.01,2013-02-12 12:20:00,
2013-02-12 06:21:00,25.4,23.9,30.10,SW,218,0.0,0.0,94,0.00,,---,0.00,VWS V14.01,2013-02-12 12:21:00,
2013-02-12 06:23:00,25.4,23.9,30.11,SW,218,0.0,0.0,94,0.00,,---,0.00,VWS V14.01,2013-02-12 12:23:00,
2013-02-12 06:25:00,25.4,23.9,30.11,SW,218,0.0,0.0,94,0.00,,---,0.00,VWS V14.01,2013-02-12 12:25:00,
2013-02-12 06:26:00,25.4,23.9,30.11,SW,218,0.0,0.0,94,0.00,,---,0.00,VWS V14.01,2013-02-12 12:26:00,
2013-02-12 06:28:00,25.3,23.8,30.11,SW,218,2.0,2.0,94,0.00,,---,0.00,VWS V14.01,2013-02-12 12:28:00,
2013-02-12 06:30:00,25.2,23.7,30.11,SW,218,1.0,2.0,94,0.00,,---,0.00,VWS V14.01,2013-02-12 12:30:00,
2013-02-12 06:32:00,25.2,23.7,30.11,SW,218,1.0,2.0,94,0.00,,---,0.00,VWS V14.01,2013-02-12 12:32:00,
2013-02-12 06:33:00,25.2,23.7,30.11,SW,218,1.0,2.0,94,0.00,,---,0.00,VWS V14.01,2013-02-12 12:33:00,
2013-02-12 06:34:00,25.2,23.7,30.11,SW,218,1.0,2.0,94,0.00,,---,0.00,VWS V14.01,2013-02-12 12:34:00,
2013-02-12 06:35:00,25.2,23.7,30.11,SW,218,1.0,2.0,94,0.00,,---,0.00,VWS V14.01,2013-02-12 12:35:00,
2013-02-12 06:37:00,25.2,23.7,30.11,SW,218,1.0,2.0,94,0.00,,---,0.00,VWS V14.01,2013-02-12 12:37:00,
2013-02-12 06:38:00,25.3,23.8,30.10,SW,218,0.0,2.0,94,0.00,,---,0.00,VWS V14.01,2013-02-12 12:38:00,
2013-02-12 06:39:00,25.4,23.9,30.11,SW,218,0.0,2.0,94,0.00,,---,0.00,VWS V14.01,2013-02-12 12:39:00,
2013-02-12 06:40:00,25.5,24.0,30.11,SW,218,2.0,2.0,94,0.00,,---,0.00,VWS V14.01,2013-02-12 12:40:00,
2013-02-12 06:42:00,25.6,24.1,30.11,SW,218,2.0,2.0,94,0.00,,---,0.00,VWS V14.01,2013-02-12 12:42:00,
2013-02-12 06:44:00,25.8,24.3,30.11,SW,218,0.0,2.0,94,0.00,,---,0.00,VWS V14.01,2013-02-12 12:44:00,
2013-02-12 06:45:00,25.9,24.4,30.11,SW,218,0.0,2.0,94,0.00,,---,0.00,VWS V14.01,2013-02-12 12:45:00,
2013-02-12 06:47:00,25.9,24.4,30.11,SW,218,0.0,2.0,94,0.00,,---,0.00,VWS V14.01,2013-02-12 12:47:00,
2013-02-12 06:49:00,25.8,24.3,30.11,SW,218,0.0,2.0,94,0.00,,---,0.00,VWS V14.01,2013-02-12 12:49:00,
2013-02-12 06:50:00,25.9,24.4,30.11,SW,218,0.0,2.0,94,0.00,,---,0.00,VWS V14.01,2013-02-12 12:50:00,
2013-02-12 06:52:00,26.0,24.5,30.11,SW,218,0.0,2.0,94,0.00,,---,0.00,VWS V14.01,2013-02-12 12:52:00,
2013-02-12 06:54:00,26.0,24.5,30.11,SW,218,0.0,2.0,94,0.00,,---,0.00,VWS V14.01,2013-02-12 12:54:00,
2013-02-12 06:55:00,26.0,24.5,30.11,SW,218,0.0,2.0,94,0.00,,---,0.00,VWS V14.01,2013-02-12 12:55:00,
2013-02-12 06:56:00,26.0,24.5,30.11,SW,218,0.0,2.0,94,0.00,,---,0.00,VWS V14.01,2013-02-12 12:56:00,
2013-02-12 06:58:00,26.1,24.6,30.11,SW,218,0.0,0.0,94,0.00,,---,0.00,VWS V14.01,2013-02-12 12:58:00,
2013-02-12 06:59:00,26.0,24.3,30.11,SW,218,0.0,0.0,93,0.00,,---,0.00,VWS V14.01,2013-02-12 12:59:00,
2013-02-12 07:00:00,25.9,24.2,30.11,SW,218,0.0,0.0,93,0.00,,---,0.00,VWS V14.01,2013-02-12 13:00:00,
2013-02-12 07:01:00,25.9,24.2,30.11,SW,218,0.0,0.0,93,0.00,,---,0.00,VWS V14.01,2013-02-12 13:01:00,
2013-02-12 07:03:00,25.8,24.1,30.11,SW,218,0.0,1.0,93,0.00,,---,0.00,VWS V14.01,2013-02-12 13:03:00,
2013-02-12 07:04:00,25.8,24.1,30.11,SW,218,1.0,1.0,93,0.00,,---,0.00,VWS V14.01,2013-02-12 13:04:00,
2013-02-12 07:05:00,25.8,24.3,30.11,SW,218,0.0,1.0,94,0.00,,---,0.00,VWS V14.01,2013-02-12 13:05:00,
2013-02-12 07:07:00,25.8,24.3,30.11,SW,218,0.0,1.0,94,0.00,,---,0.00,VWS V14.01,2013-02-12 13:07:00,
2013-02-12 07:08:00,25.8,24.3,30.11,SW,218,0.0,1.0,94,0.00,,---,0.00,VWS V14.01,2013-02-12 13:08:00,
2013-02-12 07:10:00,25.8,24.3,30.11,SW,218,0.0,1.0,94,0.00,,---,0.00,VWS V14.01,2013-02-12 13:10:00,
2013-02-12 07:12:00,25.8,24.3,30.11,SW,218,0.0,1.0,94,0.00,,---,0.00,VWS V14.01,2013-02-12 13:12:00,
2013-02-12 07:13:00,25.8,24.3,30.11,SW,218,0.0,1.0,94,0.00,,---,0.00,VWS V14.01,2013-02-12 13:13:00,
2013-02-12 07:15:00,25.8,24.3,30.11,SW,218,0.0,1.0,94,0.00,,---,0.00,VWS V14.01,2013-02-12 13:15:00,
2013-02-12 07:16:00,25.8,24.3,30.11,SW,218,0.0,1.0,94,0.00,,---,0.00,VWS V14.01,2013-02-12 13:16:00,
2013-02-12 07:17:00,25.8,24.3,30.11,SW,218,0.0,1.0,94,0.00,,---,0.00,VWS V14.01,2013-02-12 13:17:00,
2013-02-12 07:18:00,25.9,24.4,30.11,SW,218,0.0,1.0,94,0.00,,---,0.00,VWS V14.01,2013-02-12 13:18:00,
2013-02-12 07:20:00,25.9,24.4,30.11,SW,218,0.0,1.0,94,0.00,,---,0.00,VWS V14.01,2013-02-12 13:20:00,
2013-02-12 07:21:00,25.9,24.4,30.11,SW,218,0.0,1.0,94,0.00,,---,0.00,VWS V14.01,2013-02-12 13:21:00,
2013-02-12 07:22:00,25.9,24.4,30.11,SW,218,0.0,1.0,94,0.00,,---,0.00,VWS V14.01,2013-02-12 13:22:00,
2013-02-12 07:24:00,26.0,24.5,30.11,SW,218,0.0,1.0,94,0.00,,---,0.00,VWS V14.01,2013-02-12 13:24:00,
2013-02-12 07:25:00,26.0,24.5,30.11,SW,218,0.0,1.0,94,0.00,,---,0.00,VWS V14.01,2013-02-12 13:25:00,
2013-02-12 07:27:00,26.2,24.7,30.11,SW,218,0.0,1.0,94,0.00,,---,0.00,VWS V14.01,2013-02-12 13:27:00,
2013-02-12 07:29:00,26.7,25.2,30.11,SW,218,0.0,0.0,94,0.00,,---,0.00,VWS V14.01,2013-02-12 13:29:00,
2013-02-12 07:30:00,26.9,25.7,30.11,SW,218,1.0,1.0,95,0.00,,---,0.00,VWS V14.01,2013-02-12 13:30:00,
2013-02-12 07:32:00,27.1,25.6,30.11,SW,218,1.0,1.0,94,0.00,,---,0.00,VWS V14.01,2013-02-12 13:32:00,
2013-02-12 07:34:00,27.6,26.4,30.11,SW,218,0.0,2.0,95,0.00,,---,0.00,VWS V14.01,2013-02-12 13:34:00,
2013-02-12 07:35:00,27.8,26.6,30.11,SE,135,1.0,2.0,95,0.00,,---,0.00,VWS V14.01,2013-02-12 13:35:00,
2013-02-12 07:37:00,28.2,27.0,30.11,North,11,0.0,2.0,95,0.00,,---,0.00,VWS V14.01,2013-02-12 13:37:00,
2013-02-12 07:39:00,28.4,26.9,30.11,North,11,0.0,2.0,94,0.00,,---,0.00,VWS V14.01,2013-02-12 13:39:00,
2013-02-12 07:41:00,28.4,26.9,30.11,North,11,0.0,2.0,94,0.00,,---,0.00,VWS V14.01,2013-02-12 13:41:00,
2013-02-12 07:42:00,28.4,26.9,30.11,North,11,0.0,2.0,94,0.00,,---,0.00,VWS V14.01,2013-02-12 13:42:00,
2013-02-12 07:45:00,28.6,27.1,30.11,North,11,0.0,2.0,94,0.00,,---,0.00,VWS V14.01,2013-02-12 13:45:00,
2013-02-12 07:46:00,28.7,27.2,30.11,North,11,0.0,2.0,94,0.00,,---,0.00,VWS V14.01,2013-02-12 13:46:00,
2013-02-12 07:47:00,29.0,27.5,30.11,North,11,0.0,2.0,94,0.00,,---,0.00,VWS V14.01,2013-02-12 13:47:00,
2013-02-12 07:50:00,29.5,28.0,30.12,North,11,1.0,2.0,94,0.00,,---,0.00,VWS V14.01,2013-02-12 13:50:00,
2013-02-12 07:51:00,29.7,28.2,30.12,NNW,341,1.0,2.0,94,0.00,,---,0.00,VWS V14.01,2013-02-12 13:51:00,
2013-02-12 07:52:00,30.3,28.8,30.12,NNW,341,0.0,2.0,94,0.00,,---,0.00,VWS V14.01,2013-02-12 13:52:00,
2013-02-12 07:53:00,30.3,28.8,30.12,NNW,341,0.0,2.0,94,0.00,,---,0.00,VWS V14.01,2013-02-12 13:53:00,
2013-02-12 07:55:00,31.4,29.6,30.12,West,271,2.0,4.0,93,0.00,,---,0.00,VWS V14.01,2013-02-12 13:55:00,
2013-02-12 07:56:00,31.8,30.0,30.12,West,271,2.0,4.0,93,0.00,,---,0.00,VWS V14.01,2013-02-12 13:56:00,
2013-02-12 07:57:00,32.2,29.6,30.12,WNW,293,2.0,4.0,90,0.00,,---,0.00,VWS V14.01,2013-02-12 13:57:00,
2013-02-12 07:58:00,32.2,29.6,30.12,WNW,293,2.0,2.0,90,0.00,,---,0.00,VWS V14.01,2013-02-12 13:58:00,
2013-02-12 08:00:00,32.3,29.1,30.11,WNW,294,1.0,3.0,88,0.00,,---,0.00,VWS V14.01,2013-02-12 14:00:00,
2013-02-12 08:01:00,32.4,29.2,30.11,WNW,294,2.0,3.0,88,0.00,,---,0.00,VWS V14.01,2013-02-12 14:01:00,
2013-02-12 08:02:00,32.6,29.7,30.11,WNW,294,0.0,3.0,89,0.00,,---,0.00,VWS V14.01,2013-02-12 14:02:00,
2013-02-12 08:03:00,32.6,29.7,30.12,NW,308,3.0,3.0,89,0.00,,---,0.00,VWS V14.01,2013-02-12 14:03:00,
2013-02-12 08:05:00,33.2,29.5,30.12,NW,308,2.0,3.0,86,0.00,,---,0.00,VWS V14.01,2013-02-12 14:05:00,
2013-02-12 08:06:00,33.3,29.6,30.12,NW,308,2.0,3.0,86,0.00,,---,0.00,VWS V14.01,2013-02-12 14:06:00,
2013-02-12 08:07:00,33.6,29.6,30.12,WNW,302,2.0,4.0,85,0.00,,---,0.00,VWS V14.01,2013-02-12 14:07:00,
2013-02-12 08:08:00,33.7,29.7,30.12,WNW,302,3.0,4.0,85,0.00,,---,0.00,VWS V14.01,2013-02-12 14:08:00,
2013-02-12 08:10:00,34.3,29.4,30.11,WNW,302,5.0,5.0,82,0.00,,---,0.00,VWS V14.01,2013-02-12 14:10:00,
2013-02-12 08:11:00,34.4,29.5,30.11,WNW,302,2.0,5.0,82,0.00,,---,0.00,VWS V14.01,2013-02-12 14:11:00,
2013-02-12 08:12:00,34.6,29.4,30.12,WNW,302,3.0,5.0,81,0.00,,---,0.00,VWS V14.01,2013-02-12 14:12:00,
2013-02-12 08:13:00,34.7,29.5,30.11,WNW,302,2.0,5.0,81,0.00,,---,0.00,VWS V14.01,2013-02-12 14:13:00,
2013-02-12 08:16:00,35.0,29.5,30.11,WNW,302,3.0,5.0,80,0.00,,---,0.00,VWS V14.01,2013-02-12 14:16:00,
2013-02-12 08:17:00,35.2,29.4,30.11,SW,228,2.0,5.0,79,0.00,,---,0.00,VWS V14.01,2013-02-12 14:17:00,
2013-02-12 08:18:00,35.3,29.5,30.12,WNW,300,2.0,5.0,79,0.00,,---,0.00,VWS V14.01,2013-02-12 14:18:00,
2013-02-12 08:21:00,35.6,29.1,30.12,WNW,290,0.0,5.0,77,0.00,,---,0.00,VWS V14.01,2013-02-12 14:21:00,
2013-02-12 08:22:00,35.8,29.3,30.12,WNW,290,2.0,5.0,77,0.00,,---,0.00,VWS V14.01,2013-02-12 14:22:00,
2013-02-12 08:23:00,36.0,29.5,30.12,WNW,290,2.0,5.0,77,0.00,,---,0.00,VWS V14.01,2013-02-12 14:23:00,
2013-02-12 08:26:00,36.7,29.5,30.12,NW,306,3.0,5.0,75,0.00,,---,0.00,VWS V14.01,2013-02-12 14:26:00,
2013-02-12 08:27:00,36.8,29.6,30.12,NW,306,5.0,5.0,75,0.00,,---,0.00,VWS V14.01,2013-02-12 14:27:00,
2013-02-12 08:28:00,36.9,29.4,30.13,NW,306,1.0,2.0,74,0.00,,---,0.00,VWS V14.01,2013-02-12 14:28:00,
2013-02-12 08:29:00,37.0,29.5,30.13,NW,306,2.0,3.0,74,0.00,,---,0.00,VWS V14.01,2013-02-12 14:29:00,
2013-02-12 08:30:00,36.9,29.7,30.13,NW,306,1.0,5.0,75,0.00,,---,0.00,VWS V14.01,2013-02-12 14:30:00,
2013-02-12 08:31:00,37.5,29.6,30.13,NW,306,0.0,3.0,73,0.00,,---,0.00,VWS V14.01,2013-02-12 14:31:00,
2013-02-12 08:32:00,37.6,30.1,30.13,NW,306,1.0,3.0,74,0.00,,---,0.00,VWS V14.01,2013-02-12 14:32:00,
2013-02-12 08:33:00,38.0,31.1,30.14,NW,306,2.0,3.0,76,0.00,,---,0.00,VWS V14.01,2013-02-12 14:33:00,
2013-02-12 08:34:00,38.1,30.9,30.14,NW,306,0.0,3.0,75,0.00,,---,0.00,VWS V14.01,2013-02-12 14:34:00,
2013-02-12 08:36:00,38.9,31.0,30.14,NW,306,0.0,3.0,73,0.00,,---,0.00,VWS V14.01,2013-02-12 14:36:00,
2013-02-12 08:37:00,39.0,31.1,30.14,NW,306,0.0,3.0,73,0.00,,---,0.00,VWS V14.01,2013-02-12 14:37:00,
2013-02-12 08:38:00,39.3,31.0,30.14,NW,306,2.0,3.0,72,0.00,,---,0.00,VWS V14.01,2013-02-12 14:38:00,
2013-02-12 08:39:00,39.4,30.8,30.14,NW,306,0.0,3.0,71,0.00,,---,0.00,VWS V14.01,2013-02-12 14:39:00,
2013-02-12 08:42:00,39.5,29.5,30.14,NW,306,1.0,3.0,67,0.00,,---,0.00,VWS V14.01,2013-02-12 14:42:00,
2013-02-12 08:43:00,39.7,31.1,30.14,NW,306,2.0,3.0,71,0.00,,---,0.00,VWS V14.01,2013-02-12 14:43:00,
2013-02-12 08:44:00,39.8,30.8,30.14,NW,306,2.0,3.0,70,0.00,,---,0.00,VWS V14.01,2013-02-12 14:44:00,
2013-02-12 08:47:00,40.2,31.2,30.14,NW,306,3.0,3.0,70,0.00,,---,0.00,VWS V14.01,2013-02-12 14:47:00,
2013-02-12 08:48:00,40.3,31.3,30.14,NW,306,4.0,4.0,70,0.00,,---,0.00,VWS V14.01,2013-02-12 14:48:00,
2013-02-12 08:49:00,40.3,30.6,30.13,NW,306,2.0,4.0,68,0.00,,---,0.00,VWS V14.01,2013-02-12 14:49:00,
2013-02-12 08:52:00,40.2,30.1,30.13,NW,306,3.0,5.0,67,0.00,,---,0.00,VWS V14.01,2013-02-12 14:52:00,
2013-02-12 08:53:00,40.2,30.1,30.13,NW,306,2.0,5.0,67,0.00,,---,0.00,VWS V14.01,2013-02-12 14:53:00,
2013-02-12 08:54:00,40.2,29.8,30.13,NW,306,0.0,5.0,66,0.00,,---,0.00,VWS V14.01,2013-02-12 14:54:00,
2013-02-12 08:55:00,40.3,30.6,30.13,NW,306,0.0,5.0,68,0.00,,---,0.00,VWS V14.01,2013-02-12 14:55:00,
2013-02-12 08:57:00,40.7,30.6,30.13,NW,306,1.0,5.0,67,0.00,,---,0.00,VWS V14.01,2013-02-12 14:57:00,
2013-02-12 08:58:00,40.6,30.1,30.13,NW,306,3.0,3.0,66,0.00,,---,0.00,VWS V14.01,2013-02-12 14:58:00,
2013-02-12 08:59:00,40.5,30.0,30.13,NW,306,2.0,3.0,66,0.00,,---,0.00,VWS V14.01,2013-02-12 14:59:00,
2013-02-12 09:00:00,40.5,30.0,30.13,NW,306,3.0,3.0,66,0.00,,---,0.00,VWS V14.01,2013-02-12 15:00:00,
2013-02-12 09:02:00,40.6,30.5,30.12,NW,306,3.0,5.0,67,0.00,,---,0.00,VWS V14.01,2013-02-12 15:02:00,
2013-02-12 09:03:00,40.7,31.0,30.12,NW,316,5.0,5.0,68,0.00,,---,0.00,VWS V14.01,2013-02-12 15:03:00,
2013-02-12 09:04:00,40.8,31.1,30.12,NW,316,4.0,5.0,68,0.00,,---,0.00,VWS V14.01,2013-02-12 15:04:00,
2013-02-12 09:05:00,40.9,30.8,30.12,NW,317,4.0,5.0,67,0.00,,---,0.00,VWS V14.01,2013-02-12 15:05:00,
2013-02-12 09:07:00,41.2,31.1,30.11,NW,314,2.0,5.0,67,0.00,,---,0.00,VWS V14.01,2013-02-12 15:07:00,
2013-02-12 09:08:00,41.4,32.0,30.11,NW,321,2.0,5.0,69,0.00,,---,0.00,VWS V14.01,2013-02-12 15:08:00,
2013-02-12 09:09:00,41.4,32.0,30.11,NW,321,2.0,5.0,69,0.00,,---,0.00,VWS V14.01,2013-02-12 15:09:00,
2013-02-12 09:10:00,41.4,32.0,30.11,NW,321,2.0,5.0,69,0.00,,---,0.00,VWS V14.01,2013-02-12 15:10:00,
2013-02-12 09:12:00,41.4,32.0,30.11,NW,321,2.0,5.0,69,0.00,,---,0.00,VWS V14.01,2013-02-12 15:12:00,
2013-02-12 09:13:00,41.4,32.0,30.10,NW,321,2.0,5.0,69,0.00,,---,0.00,VWS V14.01,2013-02-12 15:13:00,
2013-02-12 09:14:00,41.4,32.0,30.10,NW,321,2.0,5.0,69,0.00,,---,0.00,VWS V14.01,2013-02-12 15:14:00,
2013-02-12 09:15:00,41.4,32.0,30.10,NW,321,2.0,5.0,69,0.00,,---,0.00,VWS V14.01,2013-02-12 15:15:00,
2013-02-12 09:17:00,41.4,32.0,30.10,NW,321,2.0,5.0,69,0.00,,---,0.00,VWS V14.01,2013-02-12 15:17:00,
2013-02-12 09:19:00,41.4,32.0,30.09,NW,321,2.0,5.0,69,0.00,,---,0.00,VWS V14.01,2013-02-12 15:19:00,
2013-02-12 09:20:00,41.4,32.0,30.09,NW,321,2.0,5.0,69,0.00,,---,0.00,VWS V14.01,2013-02-12 15:20:00,
2013-02-12 09:21:00,41.4,32.0,30.09,NW,321,2.0,5.0,69,0.00,,---,0.00,VWS V14.01,2013-02-12 15:21:00,
2013-02-12 09:22:00,41.4,32.0,30.08,NW,321,2.0,5.0,69,0.00,,---,0.00,VWS V14.01,2013-02-12 15:22:00,
2013-02-12 09:24:00,41.4,32.0,30.08,NW,321,2.0,5.0,69,0.00,,---,0.00,VWS V14.01,2013-02-12 15:24:00,
2013-02-12 09:25:00,41.4,32.0,30.08,NW,321,2.0,5.0,69,0.00,,---,0.00,VWS V14.01,2013-02-12 15:25:00,
2013-02-12 09:26:00,41.4,32.0,30.08,NW,321,2.0,5.0,69,0.00,,---,0.00,VWS V14.01,2013-02-12 15:26:00,
2013-02-12 09:27:00,41.4,32.0,30.08,NW,321,2.0,5.0,69,0.00,,---,0.00,VWS V14.01,2013-02-12 15:27:00,
2013-02-12 09:29:00,41.4,32.0,30.07,NW,321,2.0,2.0,69,0.00,,---,0.00,VWS V14.01,2013-02-12 15:29:00,
2013-02-12 09:30:00,41.4,32.0,30.07,NW,321,2.0,2.0,69,0.00,,---,0.00,VWS V14.01,2013-02-12 15:30:00,
2013-02-12 09:31:00,41.4,32.0,30.07,NW,321,2.0,2.0,69,0.00,,---,0.00,VWS V14.01,2013-02-12 15:31:00,
2013-02-12 09:32:00,41.4,32.0,30.07,NW,321,2.0,2.0,69,0.00,,---,0.00,VWS V14.01,2013-02-12 15:32:00,
2013-02-12 09:34:00,43.5,33.3,30.07,NNE,25,4.0,4.0,67,0.00,,---,0.00,VWS V14.01,2013-02-12 15:34:00,
2013-02-12 09:35:00,43.6,33.0,30.07,North,2,7.0,8.0,66,0.00,,---,0.00,VWS V14.01,2013-02-12 15:35:00,
2013-02-12 09:37:00,43.5,32.5,30.07,NNE,16,4.0,8.0,65,0.00,,---,0.00,VWS V14.01,2013-02-12 15:37:00,
2013-02-12 09:38:00,43.5,32.2,30.07,NNW,335,4.0,8.0,64,0.00,,---,0.00,VWS V14.01,2013-02-12 15:38:00,
2013-02-12 09:39:00,43.5,31.4,30.07,NNE,23,8.0,8.0,62,0.00,,---,0.00,VWS V14.01,2013-02-12 15:39:00,
2013-02-12 09:40:00,43.3,31.2,30.07,North,6,3.0,8.0,62,0.00,,---,0.00,VWS V14.01,2013-02-12 15:40:00,
2013-02-12 09:42:00,43.2,30.7,30.07,NNE,27,3.0,8.0,61,0.00,,---,0.00,VWS V14.01,2013-02-12 15:42:00,
2013-02-12 09:43:00,43.2,30.7,30.07,NNE,17,2.0,8.0,61,0.00,,---,0.00,VWS V14.01,2013-02-12 15:43:00,
2013-02-12 09:45:00,43.4,31.7,30.07,North,2,4.0,8.0,63,0.00,,---,0.00,VWS V14.01,2013-02-12 15:45:00,
2013-02-12 09:47:00,43.6,31.9,30.07,North,354,4.0,8.0,63,0.00,,---,0.00,VWS V14.01,2013-02-12 15:47:00,
2013-02-12 09:49:00,43.8,32.0,30.07,North,357,4.0,8.0,63,0.00,,---,0.00,VWS V14.01,2013-02-12 15:49:00,
2013-02-12 09:50:00,43.8,31.6,30.08,NNE,22,6.0,8.0,62,0.00,,---,0.00,VWS V14.01,2013-02-12 15:50:00,
2013-02-12 09:52:00,43.8,31.6,30.08,NNE,12,5.0,8.0,62,0.00,,---,0.00,VWS V14.01,2013-02-12 15:52:00,
2013-02-12 09:54:00,44.0,32.6,30.08,North,350,5.0,8.0,64,0.00,,---,0.00,VWS V14.01,2013-02-12 15:54:00,
2013-02-12 09:55:00,44.3,33.3,30.08,North,354,4.0,8.0,65,0.00,,---,0.00,VWS V14.01,2013-02-12 15:55:00,
2013-02-12 09:57:00,44.8,33.8,30.08,North,7,4.0,8.0,65,0.00,,---,0.00,VWS V14.01,2013-02-12 15:57:00,
2013-02-12 09:59:00,44.5,31.9,30.08,NNE,12,4.0,6.0,61,0.00,,---,0.00,VWS V14.01,2013-02-12 15:59:00,
2013-02-12 10:00:00,44.3,31.7,30.08,NNE,12,2.0,6.0,61,0.00,,---,0.00,VWS V14.01,2013-02-12 16:00:00,
2013-02-12 10:02:00,44.1,32.3,30.08,NNE,12,1.0,6.0,63,0.00,,---,0.00,VWS V14.01,2013-02-12 16:02:00,
2013-02-12 10:04:00,44.7,33.7,30.08,NNW,330,3.0,6.0,65,0.00,,---,0.00,VWS V14.01,2013-02-12 16:04:00,
2013-02-12 10:05:00,44.9,33.5,30.08,NW,310,3.0,6.0,64,0.00,,---,0.00,VWS V14.01,2013-02-12 16:05:00,
2013-02-12 10:07:00,44.9,32.3,30.08,NNE,31,1.0,6.0,61,0.00,,---,0.00,VWS V14.01,2013-02-12 16:07:00,
2013-02-12 10:09:00,44.5,31.9,30.08,NE,54,1.0,6.0,61,0.00,,---,0.00,VWS V14.01,2013-02-12 16:09:00,
2013-02-12 10:10:00,44.5,31.9,30.08,NE,55,2.0,6.0,61,0.00,,---,0.00,VWS V14.01,2013-02-12 16:10:00,
2013-02-12 10:11:00,44.4,31.8,30.09,NE,54,0.0,6.0,61,0.00,,---,0.00,VWS V14.01,2013-02-12 16:11:00,
2013-02-12 10:12:00,44.3,31.7,30.09,NE,55,0.0,6.0,61,0.00,,---,0.00,VWS V14.01,2013-02-12 16:12:00,
2013-02-12 10:14:00,44.6,34.0,30.08,NE,55,1.0,6.0,66,0.00,,---,0.00,VWS V14.01,2013-02-12 16:14:00,
2013-02-12 10:15:00,44.9,34.2,30.08,NE,54,2.0,6.0,66,0.00,,---,0.00,VWS V14.01,2013-02-12 16:15:00,
2013-02-12 10:16:00,45.0,34.3,30.08,NE,54,3.0,6.0,66,0.00,,---,0.00,VWS V14.01,2013-02-12 16:16:00,
2013-02-12 10:18:00,44.9,32.7,30.08,NE,53,0.0,6.0,62,0.00,,---,0.00,VWS V14.01,2013-02-12 16:18:00,
2013-02-12 10:19:00,45.4,34.3,30.07,WNW,299,4.0,6.0,65,0.00,,---,0.00,VWS V14.01,2013-02-12 16:19:00,
2013-02-12 10:20:00,45.4,33.6,30.07,NW,314,1.0,6.0,63,0.00,,---,0.00,VWS V14.01,2013-02-12 16:20:00,
2013-02-12 10:21:00,45.4,33.6,30.07,WNW,298,4.0,6.0,63,0.00,,---,0.00,VWS V14.01,2013-02-12 16:21:00,
2013-02-12 10:23:00,45.3,33.5,30.07,NW,325,2.0,6.0,63,0.00,,---,0.00,VWS V14.01,2013-02-12 16:23:00,
2013-02-12 10:25:00,45.4,33.2,30.07,NNW,330,3.0,6.0,62,0.00,,---,0.00,VWS V14.01,2013-02-12 16:25:00,
2013-02-12 10:26:00,45.3,33.1,30.07,NNW,330,3.0,6.0,62,0.00,,---,0.00,VWS V14.01,2013-02-12 16:26:00,
2013-02-12 10:28:00,45.1,32.9,30.07,NNW,330,1.0,3.0,62,0.00,,---,0.00,VWS V14.01,2013-02-12 16:28:00,
2013-02-12 10:30:00,45.2,33.0,30.07,WNW,297,4.0,6.0,62,0.00,,---,0.00,VWS V14.01,2013-02-12 16:30:00,
2013-02-12 10:31:00,45.2,33.0,30.06,North,349,3.0,6.0,62,0.00,,---,0.00,VWS V14.01,2013-02-12 16:31:00,
2013-02-12 10:34:00,45.4,33.6,30.07,NW,325,4.0,6.0,63,0.00,,---,0.00,VWS V14.01,2013-02-12 16:34:00,
2013-02-12 10:35:00,45.5,33.7,30.07,NW,325,5.0,6.0,63,0.00,,---,0.00,VWS V14.01,2013-02-12 16:35:00,
2013-02-12 10:36:00,45.6,33.8,30.07,NW,320,2.0,6.0,63,0.00,,---,0.00,VWS V14.01,2013-02-12 16:36:00,
2013-02-12 10:39:00,45.8,33.5,30.07,NNW,335,1.0,6.0,62,0.00,,---,0.00,VWS V14.01,2013-02-12 16:39:00,
2013-02-12 10:40:00,46.0,33.7,30.07,North,355,2.0,6.0,62,0.00,,---,0.00,VWS V14.01,2013-02-12 16:40:00,
2013-02-12 10:41:00,46.1,33.8,30.07,NNW,339,3.0,6.0,62,0.00,,---,0.00,VWS V14.01,2013-02-12 16:41:00,
2013-02-12 10:42:00,46.1,34.2,30.08,NNW,330,3.0,6.0,63,0.00,,---,0.00,VWS V14.01,2013-02-12 16:42:00,
2013-02-12 10:44:00,46.1,34.2,30.08,NW,325,3.0,6.0,63,0.00,,---,0.00,VWS V14.01,2013-02-12 16:44:00,
2013-02-12 10:45:00,46.1,33.4,30.08,NW,325,1.0,6.0,61,0.00,,---,0.00,VWS V14.01,2013-02-12 16:45:00,
2013-02-12 10:46:00,46.1,33.0,30.08,NNW,335,1.0,6.0,60,0.00,,---,0.00,VWS V14.01,2013-02-12 16:46:00,
2013-02-12 10:47:00,46.0,32.9,30.08,NNW,335,1.0,6.0,60,0.00,,---,0.00,VWS V14.01,2013-02-12 16:47:00,
2013-02-12 10:49:00,45.9,34.0,30.07,NNW,335,0.0,6.0,63,0.00,,---,0.00,VWS V14.01,2013-02-12 16:49:00,
2013-02-12 10:50:00,46.0,33.7,30.07,NNW,335,2.0,6.0,62,0.00,,---,0.00,VWS V14.01,2013-02-12 16:50:00,
2013-02-12 10:52:00,46.1,33.4,30.07,NNW,347,4.0,6.0,61,0.00,,---,0.00,VWS V14.01,2013-02-12 16:52:00,
2013-02-12 10:55:00,46.0,32.5,30.08,North,8,2.0,6.0,59,0.00,,---,0.00,VWS V14.01,2013-02-12 16:55:00,
2013-02-12 10:57:00,46.0,32.9,30.08,North,8,0.0,6.0,60,0.00,,---,0.00,VWS V14.01,2013-02-12 16:57:00,
2013-02-12 11:00:00,46.3,33.2,30.08,North,8,1.0,3.0,60,0.00,,---,0.00,VWS V14.01,2013-02-12 17:00:00,
2013-02-12 11:01:00,46.2,32.7,30.08,North,8,1.0,3.0,59,0.00,,---,0.00,VWS V14.01,2013-02-12 17:01:00,
2013-02-12 11:02:00,46.1,33.0,30.08,North,9,3.0,3.0,60,0.00,,---,0.00,VWS V14.01,2013-02-12 17:02:00,
2013-02-12 11:05:00,46.0,32.9,30.08,North,10,2.0,3.0,60,0.00,,---,0.00,VWS V14.01,2013-02-12 17:05:00,
2013-02-12 11:06:00,46.1,34.2,30.08,North,10,2.0,3.0,63,0.00,,---,0.00,VWS V14.01,2013-02-12 17:06:00,
2013-02-12 11:07:00,46.2,33.5,30.09,North,10,1.0,3.0,61,0.00,,---,0.00,VWS V14.01,2013-02-12 17:07:00,
2013-02-12 11:10:00,46.2,33.1,30.09,North,10,1.0,3.0,60,0.00,,---,0.00,VWS V14.01,2013-02-12 17:10:00,
2013-02-12 11:11:00,46.2,33.1,30.09,North,10,1.0,3.0,60,0.00,,---,0.00,VWS V14.01,2013-02-12 17:11:00,
2013-02-12 11:12:00,46.3,33.2,30.09,North,10,0.0,3.0,60,0.00,,---,0.00,VWS V14.01,2013-02-12 17:12:00,
2013-02-12 11:15:00,46.4,33.3,30.09,North,10,0.0,3.0,60,0.00,,---,0.00,VWS V14.01,2013-02-12 17:15:00,
2013-02-12 11:16:00,46.5,33.8,30.09,North,10,1.0,3.0,61,0.00,,---,0.00,VWS V14.01,2013-02-12 17:16:00,
2013-02-12 11:17:00,46.5,33.0,30.09,North,10,0.0,3.0,59,0.00,,---,0.00,VWS V14.01,2013-02-12 17:17:00,
2013-02-12 11:21:00,46.4,33.3,30.09,ENE,71,5.0,5.0,60,0.00,,---,0.00,VWS V14.01,2013-02-12 17:21:00,
2013-02-12 11:22:00,46.4,32.4,30.09,ENE,63,2.0,5.0,58,0.00,,---,0.00,VWS V14.01,2013-02-12 17:22:00,
2013-02-12 11:26:00,46.4,32.9,30.08,ENE,63,1.0,5.0,59,0.00,,---,0.00,VWS V14.01,2013-02-12 17:26:00,
2013-02-12 11:27:00,46.5,33.4,30.08,NE,50,3.0,5.0,60,0.00,,---,0.00,VWS V14.01,2013-02-12 17:27:00,
2013-02-12 11:28:00,46.5,33.4,30.08,NE,50,2.0,3.0,60,0.00,,---,0.00,VWS V14.01,2013-02-12 17:28:00,
2013-02-12 11:30:00,46.5,33.4,30.08,NE,50,2.0,5.0,60,0.00,,---,0.00,VWS V14.01,2013-02-12 17:30:00,
2013-02-12 11:31:00,46.7,32.7,30.08,NE,50,0.0,3.0,58,0.00,,---,0.00,VWS V14.01,2013-02-12 17:31:00,
2013-02-12 11:32:00,46.8,33.2,30.08,NE,50,0.0,3.0,59,0.00,,---,0.00,VWS V14.01,2013-02-12 17:32:00,
2013-02-12 11:33:00,46.9,33.3,30.08,NE,50,0.0,3.0,59,0.00,,---,0.00,VWS V14.01,2013-02-12 17:33:00,
2013-02-12 11:36:00,47.0,33.4,30.08,NE,50,1.0,3.0,59,0.00,,---,0.00,VWS V14.01,2013-02-12 17:36:00,
2013-02-12 11:37:00,47.1,33.9,30.08,NE,50,0.0,3.0,60,0.00,,---,0.00,VWS V14.01,2013-02-12 17:37:00,
2013-02-12 11:38:00,47.2,33.6,30.09,ESE,114,3.0,3.0,59,0.00,,---,0.00,VWS V14.01,2013-02-12 17:38:00,
2013-02-12 11:42:00,46.9,33.8,30.09,NE,44,0.0,5.0,60,0.00,,---,0.00,VWS V14.01,2013-02-12 17:42:00,
2013-02-12 11:43:00,46.9,34.2,30.09,NE,44,2.0,5.0,61,0.00,,---,0.00,VWS V14.01,2013-02-12 17:43:00,
2013-02-12 11:47:00,46.8,32.4,30.09,East,89,1.0,5.0,57,0.00,,---,0.00,VWS V14.01,2013-02-12 17:47:00,
2013-02-12 11:48:00,46.8,32.4,30.09,East,89,1.0,5.0,57,0.00,,---,0.00,VWS V14.01,2013-02-12 17:48:00,
2013-02-12 11:53:00,46.9,32.9,30.08,East,89,1.0,5.0,58,0.00,,---,0.00,VWS V14.01,2013-02-12 17:53:00,
2013-02-12 11:54:00,46.9,32.5,30.08,East,88,2.0,5.0,57,0.00,,---,0.00,VWS V14.01,2013-02-12 17:54:00,
2013-02-12 11:58:00,47.0,32.6,30.08,NNE,17,4.0,4.0,57,0.00,,---,0.00,VWS V14.01,2013-02-12 17:58:00,
2013-02-12 11:59:00,47.0,33.0,30.08,NNE,23,2.0,4.0,58,0.00,,---,0.00,VWS V14.01,2013-02-12 17:59:00,
2013-02-12 12:00:00,46.9,32.5,30.08,NNE,14,2.0,5.0,57,0.00,,---,0.00,VWS V14.01,2013-02-12 18:00:00,
2013-02-12 12:03:00,47.0,33.4,30.07,ESE,104,1.0,5.0,59,0.00,,---,0.00,VWS V14.01,2013-02-12 18:03:00,
2013-02-12 12:04:00,47.0,33.4,30.07,ESE,104,2.0,5.0,59,0.00,,---,0.00,VWS V14.01,2013-02-12 18:04:00,
2013-02-12 12:08:00,47.1,33.1,30.07,ESE,115,4.0,5.0,58,0.00,,---,0.00,VWS V14.01,2013-02-12 18:08:00,
2013-02-12 12:09:00,47.1,33.1,30.07,ESE,115,3.0,5.0,58,0.00,,---,0.00,VWS V14.01,2013-02-12 18:09:00,
2013-02-12 12:10:00,47.0,32.1,30.08,ESE,115,1.0,5.0,56,0.00,,---,0.00,VWS V14.01,2013-02-12 18:10:00,
2013-02-12 12:13:00,47.0,33.0,30.07,ESE,115,2.0,5.0,58,0.00,,---,0.00,VWS V14.01,2013-02-12 18:13:00,
2013-02-12 12:15:00,47.1,33.1,30.07,ESE,115,0.0,5.0,58,0.00,,---,0.00,VWS V14.01,2013-02-12 18:15:00,
2013-02-12 12:18:00,47.2,32.3,30.08,ESE,115,2.0,5.0,56,0.00,,---,0.00,VWS V14.01,2013-02-12 18:18:00,
2013-02-12 12:20:00,47.3,32.4,30.08,ESE,115,2.0,5.0,56,0.00,,---,0.00,VWS V14.01,2013-02-12 18:20:00,
2013-02-12 12:23:00,47.4,33.0,30.08,ESE,111,6.0,7.0,57,0.00,,---,0.00,VWS V14.01,2013-02-12 18:23:00,
2013-02-12 12:25:00,47.4,33.0,30.08,East,79,3.0,7.0,57,0.00,,---,0.00,VWS V14.01,2013-02-12 18:25:00,
2013-02-12 12:28:00,47.4,33.8,30.08,ESE,118,5.0,5.0,59,0.00,,---,0.00,VWS V14.01,2013-02-12 18:28:00,
2013-02-12 12:29:00,47.4,33.8,30.08,ESE,110,6.0,6.0,59,0.00,,---,0.00,VWS V14.01,2013-02-12 18:29:00,
2013-02-12 12:30:00,47.4,33.8,30.08,ESE,116,4.0,7.0,59,0.00,,---,0.00,VWS V14.01,2013-02-12 18:30:00,
2013-02-12 12:33:00,47.3,33.7,30.08,ESE,123,5.0,7.0,59,0.00,,---,0.00,VWS V14.01,2013-02-12 18:33:00,
2013-02-12 12:34:00,47.3,33.3,30.08,ESE,105,4.0,7.0,58,0.00,,---,0.00,VWS V14.01,2013-02-12 18:34:00,
2013-02-12 12:35:00,47.3,33.3,30.07,ESE,120,3.0,7.0,58,0.00,,---,0.00,VWS V14.01,2013-02-12 18:35:00,
2013-02-12 12:38:00,47.2,33.2,30.06,ESE,120,3.0,7.0,58,0.00,,---,0.00,VWS V14.01,2013-02-12 18:38:00,
2013-02-12 12:40:00,47.2,33.6,30.06,ESE,120,2.0,7.0,59,0.00,,---,0.00,VWS V14.01,2013-02-12 18:40:00,
2013-02-12 12:41:00,47.2,33.2,30.06,ESE,120,3.0,7.0,58,0.00,,---,0.00,VWS V14.01,2013-02-12 18:41:00,
2013-02-12 12:43:00,47.2,32.3,30.06,NE,45,3.0,7.0,56,0.00,,---,0.00,VWS V14.01,2013-02-12 18:43:00,
2013-02-12 12:45:00,47.2,32.3,30.05,NE,45,2.0,7.0,56,0.00,,---,0.00,VWS V14.01,2013-02-12 18:45:00,
2013-02-12 12:46:00,47.2,31.9,30.05,NE,45,1.0,7.0,55,0.00,,---,0.00,VWS V14.01,2013-02-12 18:46:00,
2013-02-12 12:48:00,47.3,32.4,30.05,NE,45,2.0,7.0,56,0.00,,---,0.00,VWS V14.01,2013-02-12 18:48:00,
2013-02-12 12:50:00,47.4,32.1,30.05,NNE,28,2.0,7.0,55,0.00,,---,0.00,VWS V14.01,2013-02-12 18:50:00,
2013-02-12 12:51:00,47.4,32.1,30.06,NNE,28,1.0,7.0,55,0.00,,---,0.00,VWS V14.01,2013-02-12 18:51:00,
2013-02-12 12:53:00,47.4,33.0,30.06,NNE,28,2.0,7.0,57,0.00,,---,0.00,VWS V14.01,2013-02-12 18:53:00,
2013-02-12 12:55:00,47.6,32.2,30.06,NNE,28,1.0,7.0,55,0.00,,---,0.00,VWS V14.01,2013-02-12 18:55:00,
2013-02-12 12:56:00,47.6,32.2,30.06,NNE,28,1.0,7.0,55,0.00,,---,0.00,VWS V14.01,2013-02-12 18:56:00,
2013-02-12 12:58:00,47.6,32.7,30.06,NNE,28,1.0,2.0,56,0.00,,---,0.00,VWS V14.01,2013-02-12 18:58:00,
2013-02-12 13:00:00,47.6,32.7,30.06,NNE,28,1.0,2.0,56,0.00,,---,0.00,VWS V14.01,2013-02-12 19:00:00,
2013-02-12 13:01:00,47.6,32.7,30.06,NNE,28,1.0,2.0,56,0.00,,---,0.00,VWS V14.01,2013-02-12 19:01:00,
2013-02-12 13:04:00,47.5,31.7,30.06,NNE,28,0.0,2.0,54,0.00,,---,0.00,VWS V14.01,2013-02-12 19:04:00,
2013-02-12 13:06:00,47.5,32.2,30.06,NNE,28,0.0,2.0,55,0.00,,---,0.00,VWS V14.01,2013-02-12 19:06:00,
2013-02-12 13:09:00,47.5,31.7,30.06,NNE,28,0.0,2.0,54,0.00,,---,0.00,VWS V14.01,2013-02-12 19:09:00,
2013-02-12 13:11:00,47.6,31.3,30.06,NNE,28,0.0,2.0,53,0.00,,---,0.00,VWS V14.01,2013-02-12 19:11:00,
2013-02-12 13:15:00,47.6,31.3,30.05,NNE,28,1.0,2.0,53,0.00,,---,0.00,VWS V14.01,2013-02-12 19:15:00,
2013-02-12 13:16:00,47.7,32.3,30.05,NNE,28,1.0,2.0,55,0.00,,---,0.00,VWS V14.01,2013-02-12 19:16:00,
2013-02-12 13:20:00,47.6,31.8,30.04,East,89,4.0,5.0,54,0.00,,---,0.00,VWS V14.01,2013-02-12 19:20:00,
2013-02-12 13:21:00,47.6,31.3,30.05,East,88,4.0,5.0,53,0.00,,---,0.00,VWS V14.01,2013-02-12 19:21:00,
2013-02-12 13:25:00,47.6,32.2,30.05,ESE,108,3.0,6.0,55,0.00,,---,0.00,VWS V14.01,2013-02-12 19:25:00,
2013-02-12 13:26:00,47.6,31.8,30.04,East,87,5.0,6.0,54,0.00,,---,0.00,VWS V14.01,2013-02-12 19:26:00,
2013-02-12 13:27:00,47.6,32.2,30.04,East,82,4.0,6.0,55,0.00,,---,0.00,VWS V14.01,2013-02-12 19:27:00,
2013-02-12 13:30:00,47.6,31.8,30.03,East,83,4.0,4.0,54,0.00,,---,0.00,VWS V14.01,2013-02-12 19:30:00,
2013-02-12 13:31:00,47.6,32.2,30.03,East,83,2.0,4.0,55,0.00,,---,0.00,VWS V14.01,2013-02-12 19:31:00,
2013-02-12 13:32:00,47.6,32.2,30.03,East,83,2.0,4.0,55,0.00,,---,0.00,VWS V14.01,2013-02-12 19:32:00,
2013-02-12 13:35:00,47.7,31.9,30.03,NE,50,3.0,6.0,54,0.00,,---,0.00,VWS V14.01,2013-02-12 19:35:00,
2013-02-12 13:37:00,47.7,31.4,30.03,ENE,58,2.0,6.0,53,0.00,,---,0.00,VWS V14.01,2013-02-12 19:37:00,
2013-02-12 13:40:00,47.8,33.3,30.02,NE,56,7.0,7.0,57,0.00,,---,0.00,VWS V14.01,2013-02-12 19:40:00,
2013-02-12 13:42:00,47.8,31.5,30.02,ENE,65,6.0,7.0,53,0.00,,---,0.00,VWS V14.01,2013-02-12 19:42:00,
2013-02-12 13:45:00,47.7,32.3,30.01,ENE,62,0.0,7.0,55,0.00,,---,0.00,VWS V14.01,2013-02-12 19:45:00,
2013-02-12 13:47:00,47.7,31.4,30.01,ENE,62,1.0,7.0,53,0.00,,---,0.00,VWS V14.01,2013-02-12 19:47:00,
2013-02-12 13:50:00,47.8,33.8,30.00,ENE,62,3.0,7.0,58,0.00,,---,0.00,VWS V14.01,2013-02-12 19:50:00,
2013-02-12 13:52:00,47.9,33.0,30.00,NE,43,3.0,7.0,56,0.00,,---,0.00,VWS V14.01,2013-02-12 19:52:00,
2013-02-12 13:55:00,47.9,32.5,29.99,NE,56,2.0,7.0,55,0.00,,---,0.00,VWS V14.01,2013-02-12 19:55:00,
2013-02-12 13:57:00,47.8,32.0,30.00,ENE,60,3.0,7.0,54,0.00,,---,0.00,VWS V14.01,2013-02-12 19:57:00,
2013-02-12 14:00:00,47.8,32.4,29.99,ENE,60,1.0,5.0,55,0.00,,---,0.00,VWS V14.01,2013-02-12 20:00:00,
2013-02-12 14:02:00,48.2,34.6,29.99,NE,37,4.0,7.0,59,0.00,,---,0.00,VWS V14.01,2013-02-12 20:02:00,
2013-02-12 14:03:00,48.2,33.7,29.99,NE,37,1.0,7.0,57,0.00,,---,0.00,VWS V14.01,2013-02-12 20:03:00,
2013-02-12 14:05:00,48.4,33.4,29.99,ENE,73,3.0,7.0,56,0.00,,---,0.00,VWS V14.01,2013-02-12 20:05:00,
2013-02-12 14:07:00,48.3,33.8,29.99,NE,35,3.0,7.0,57,0.00,,---,0.00,VWS V14.01,2013-02-12 20:07:00,
2013-02-12 14:08:00,48.3,32.9,29.99,NE,35,2.0,7.0,55,0.00,,---,0.00,VWS V14.01,2013-02-12 20:08:00,
2013-02-12 14:10:00,48.4,32.5,29.99,NNE,21,5.0,9.0,54,0.00,,---,0.00,VWS V14.01,2013-02-12 20:10:00,
2013-02-12 14:12:00,48.3,31.5,29.98,North,2,5.0,9.0,52,0.00,,---,0.00,VWS V14.01,2013-02-12 20:12:00,
2013-02-12 14:13:00,48.3,31.5,29.98,North,2,4.0,9.0,52,0.00,,---,0.00,VWS V14.01,2013-02-12 20:13:00,
2013-02-12 14:15:00,48.4,32.1,29.98,NNE,13,4.0,9.0,53,0.00,,---,0.00,VWS V14.01,2013-02-12 20:15:00,
2013-02-12 14:17:00,48.6,31.8,29.98,NNE,30,3.0,9.0,52,0.00,,---,0.00,VWS V14.01,2013-02-12 20:17:00,
2013-02-12 14:18:00,48.6,31.8,29.98,NNE,25,3.0,9.0,52,0.00,,---,0.00,VWS V14.01,2013-02-12 20:18:00,
2013-02-12 14:20:00,48.9,32.5,29.98,NW,311,2.0,9.0,53,0.00,,---,0.00,VWS V14.01,2013-02-12 20:20:00,
2013-02-12 14:23:00,49.4,32.5,29.98,NE,50,3.0,9.0,52,0.00,,---,0.00,VWS V14.01,2013-02-12 20:23:00,
2013-02-12 14:24:00,49.3,32.0,29.98,NE,54,5.0,9.0,51,0.00,,---,0.00,VWS V14.01,2013-02-12 20:24:00,
2013-02-12 14:26:00,49.1,31.8,29.98,North,4,6.0,9.0,51,0.00,,---,0.00,VWS V14.01,2013-02-12 20:26:00,
2013-02-12 14:28:00,49.0,32.2,29.98,North,354,3.0,6.0,52,0.00,,---,0.00,VWS V14.01,2013-02-12 20:28:00,
2013-02-12 14:29:00,49.0,31.7,29.98,NNE,12,2.0,6.0,51,0.00,,---,0.00,VWS V14.01,2013-02-12 20:29:00,
2013-02-12 14:30:00,49.0,32.2,29.98,NW,304,5.0,9.0,52,0.00,,---,0.00,VWS V14.01,2013-02-12 20:30:00,
2013-02-12 14:31:00,48.9,31.1,29.97,North,3,3.0,6.0,50,0.00,,---,0.00,VWS V14.01,2013-02-12 20:31:00,
2013-02-12 14:33:00,49.0,32.2,29.98,NNE,21,5.0,7.0,52,0.00,,---,0.00,VWS V14.01,2013-02-12 20:33:00,
2013-02-12 14:34:00,49.0,32.2,29.98,NNE,21,2.0,7.0,52,0.00,,---,0.00,VWS V14.01,2013-02-12 20:34:00,
2013-02-12 14:36:00,49.1,32.2,29.98,NNE,23,4.0,7.0,52,0.00,,---,0.00,VWS V14.01,2013-02-12 20:36:00,
2013-02-12 14:39:00,49.0,31.7,29.98,NNE,28,5.0,8.0,51,0.00,,---,0.00,VWS V14.01,2013-02-12 20:39:00,
2013-02-12 14:41:00,48.9,32.1,29.97,NNW,346,2.0,8.0,52,0.00,,---,0.00,VWS V14.01,2013-02-12 20:41:00,
2013-02-12 14:44:00,49.0,32.6,29.97,NE,39,2.0,8.0,53,0.00,,---,0.00,VWS V14.01,2013-02-12 20:44:00,
2013-02-12 14:46:00,48.7,33.3,29.98,East,94,4.0,8.0,55,0.00,,---,0.00,VWS V14.01,2013-02-12 20:46:00,
2013-02-12 14:49:00,48.5,33.5,29.97,East,87,5.0,8.0,56,0.00,,---,0.00,VWS V14.01,2013-02-12 20:49:00,
2013-02-12 14:51:00,48.3,34.2,29.97,East,83,2.0,8.0,58,0.00,,---,0.00,VWS V14.01,2013-02-12 20:51:00,
2013-02-12 14:54:00,48.2,33.7,29.96,NE,56,6.0,8.0,57,0.00,,---,0.00,VWS V14.01,2013-02-12 20:54:00,
2013-02-12 14:57:00,48.1,33.6,29.96,NE,36,4.0,8.0,57,0.00,,---,0.00,VWS V14.01,2013-02-12 20:57:00,
2013-02-12 14:59:00,48.1,34.0,29.97,NE,52,2.0,6.0,58,0.00,,---,0.00,VWS V14.01,2013-02-12 20:59:00,
2013-02-12 15:00:00,48.1,34.0,29.97,NE,54,2.0,6.0,58,0.00,,---,0.00,VWS V14.01,2013-02-12 21:00:00,
2013-02-12 15:02:00,48.0,33.9,29.97,ENE,60,3.0,6.0,58,0.00,,---,0.00,VWS V14.01,2013-02-12 21:02:00,
2013-02-12 15:04:00,48.1,34.0,29.97,ENE,60,5.0,6.0,58,0.00,,---,0.00,VWS V14.01,2013-02-12 21:04:00,
2013-02-12 15:05:00,48.1,34.0,29.97,ENE,60,3.0,6.0,58,0.00,,---,0.00,VWS V14.01,2013-02-12 21:05:00,
2013-02-12 15:07:00,48.1,34.0,29.97,ENE,74,1.0,6.0,58,0.00,,---,0.00,VWS V14.01,2013-02-12 21:07:00,
2013-02-12 15:09:00,48.1,34.5,29.97,ENE,73,1.0,6.0,59,0.00,,---,0.00,VWS V14.01,2013-02-12 21:09:00,
2013-02-12 15:10:00,48.1,34.5,29.97,ENE,73,2.0,6.0,59,0.00,,---,0.00,VWS V14.01,2013-02-12 21:10:00,
2013-02-12 15:12:00,48.1,34.5,29.97,ENE,73,3.0,6.0,59,0.00,,---,0.00,VWS V14.01,2013-02-12 21:12:00,
2013-02-12 15:14:00,48.1,34.5,29.97,ENE,73,1.0,6.0,59,0.00,,---,0.00,VWS V14.01,2013-02-12 21:14:00,
2013-02-12 15:15:00,48.1,34.9,29.98,ENE,73,1.0,6.0,60,0.00,,---,0.00,VWS V14.01,2013-02-12 21:15:00,
2013-02-12 15:17:00,48.1,34.9,29.98,ENE,73,3.0,6.0,60,0.00,,---,0.00,VWS V14.01,2013-02-12 21:17:00,
2013-02-12 15:19:00,48.0,34.8,29.98,ENE,73,1.0,6.0,60,0.00,,---,0.00,VWS V14.01,2013-02-12 21:19:00,
2013-02-12 15:20:00,48.0,34.4,29.98,ENE,74,0.0,6.0,59,0.00,,---,0.00,VWS V14.01,2013-02-12 21:20:00,
2013-02-12 15:22:00,48.0,33.9,29.98,ENE,74,1.0,6.0,58,0.00,,---,0.00,VWS V14.01,2013-02-12 21:22:00,
2013-02-12 15:24:00,48.0,33.9,29.98,ENE,74,0.0,6.0,58,0.00,,---,0.00,VWS V14.01,2013-02-12 21:24:00,
2013-02-12 15:25:00,48.0,33.9,29.98,ENE,74,0.0,6.0,58,0.00,,---,0.00,VWS V14.01,2013-02-12 21:25:00,
2013-02-12 15:27:00,48.0,33.9,29.98,ENE,74,0.0,6.0,58,0.00,,---,0.00,VWS V14.01,2013-02-12 21:27:00,
2013-02-12 15:29:00,48.1,34.0,29.98,ENE,73,0.0,0.0,58,0.00,,---,0.00,VWS V14.01,2013-02-12 21:29:00,
2013-02-12 15:30:00,48.1,34.0,29.98,ENE,74,0.0,0.0,58,0.00,,---,0.00,VWS V14.01,2013-02-12 21:30:00,
2013-02-12 15:32:00,48.1,34.9,29.98,ENE,73,0.0,0.0,60,0.00,,---,0.00,VWS V14.01,2013-02-12 21:32:00,
2013-02-12 15:34:00,48.1,34.5,29.98,ENE,74,1.0,2.0,59,0.00,,---,0.00,VWS V14.01,2013-02-12 21:34:00,
2013-02-12 15:35:00,48.2,33.3,29.98,ENE,73,2.0,3.0,56,0.00,,---,0.00,VWS V14.01,2013-02-12 21:35:00,
2013-02-12 15:37:00,48.2,32.3,29.98,NNE,25,4.0,5.0,54,0.00,,---,0.00,VWS V14.01,2013-02-12 21:37:00,
2013-02-12 15:39:00,48.3,32.4,29.98,NNE,25,2.0,5.0,54,0.00,,---,0.00,VWS V14.01,2013-02-12 21:39:00,
2013-02-12 15:40:00,48.3,32.9,29.97,NNE,25,2.0,5.0,55,0.00,,---,0.00,VWS V14.01,2013-02-12 21:40:00,
2013-02-12 15:41:00,48.3,32.9,29.97,NNE,25,2.0,5.0,55,0.00,,---,0.00,VWS V14.01,2013-02-12 21:41:00,
2013-02-12 15:42:00,48.3,32.4,29.97,NNE,25,1.0,5.0,54,0.00,,---,0.00,VWS V14.01,2013-02-12 21:42:00,
2013-02-12 15:44:00,48.3,32.9,29.97,NNE,25,3.0,5.0,55,0.00,,---,0.00,VWS V14.01,2013-02-12 21:44:00,
2013-02-12 15:46:00,48.3,32.4,29.97,NNE,17,4.0,5.0,54,0.00,,---,0.00,VWS V14.01,2013-02-12 21:46:00,
2013-02-12 15:47:00,48.3,32.4,29.97,NE,35,2.0,5.0,54,0.00,,---,0.00,VWS V14.01,2013-02-12 21:47:00,
2013-02-12 15:50:00,48.3,32.4,29.97,North,6,2.0,5.0,54,0.00,,---,0.00,VWS V14.01,2013-02-12 21:50:00,
2013-02-12 15:51:00,48.3,32.4,29.97,NNE,15,3.0,5.0,54,0.00,,---,0.00,VWS V14.01,2013-02-12 21:51:00,
2013-02-12 15:53:00,48.3,31.5,29.96,NNE,23,4.0,5.0,52,0.00,,---,0.00,VWS V14.01,2013-02-12 21:53:00,
2013-02-12 15:55:00,48.3,32.0,29.96,North,2,3.0,5.0,53,0.00,,---,0.00,VWS V14.01,2013-02-12 21:55:00,
2013-02-12 15:56:00,48.3,32.4,29.96,North,2,2.0,5.0,54,0.00,,---,0.00,VWS V14.01,2013-02-12 21:56:00,
2013-02-12 15:57:00,48.3,32.4,29.97,North,2,2.0,5.0,54,0.00,,---,0.00,VWS V14.01,2013-02-12 21:57:00,
2013-02-12 15:58:00,48.3,32.0,29.97,North,2,1.0,1.0,53,0.00,,---,0.00,VWS V14.01,2013-02-12 21:58:00,
2013-02-12 16:00:00,48.3,32.0,29.97,NNE,13,2.0,3.0,53,0.00,,---,0.00,VWS V14.01,2013-02-12 22:00:00,
2013-02-12 16:01:00,48.3,32.4,29.97,NNE,13,1.0,3.0,54,0.00,,---,0.00,VWS V14.01,2013-02-12 22:01:00,
2013-02-12 16:02:00,48.2,32.3,29.97,NNE,13,4.0,4.0,54,0.00,,---,0.00,VWS V14.01,2013-02-12 22:02:00,
2013-02-12 16:03:00,48.3,32.0,29.97,NNE,13,3.0,4.0,53,0.00,,---,0.00,VWS V14.01,2013-02-12 22:03:00,
2013-02-12 16:05:00,48.3,32.0,29.97,NNE,13,0.0,4.0,53,0.00,,---,0.00,VWS V14.01,2013-02-12 22:05:00,
2013-02-12 16:06:00,48.3,32.0,29.97,NNE,13,0.0,4.0,53,0.00,,---,0.00,VWS V14.01,2013-02-12 22:06:00,
2013-02-12 16:07:00,48.3,32.0,29.97,NNE,13,2.0,4.0,53,0.00,,---,0.00,VWS V14.01,2013-02-12 22:07:00,
2013-02-12 16:08:00,48.3,32.0,29.97,NNE,13,0.0,4.0,53,0.00,,---,0.00,VWS V14.01,2013-02-12 22:08:00,
2013-02-12 16:10:00,48.2,31.9,29.97,NNE,13,1.0,4.0,53,0.00,,---,0.00,VWS V14.01,2013-02-12 22:10:00,
2013-02-12 16:11:00,48.3,32.0,29.98,NNE,13,2.0,4.0,53,0.00,,---,0.00,VWS V14.01,2013-02-12 22:11:00,
2013-02-12 16:12:00,48.3,31.5,29.97,NNE,13,0.0,4.0,52,0.00,,---,0.00,VWS V14.01,2013-02-12 22:12:00,
2013-02-12 16:13:00,48.3,31.5,29.97,NNE,13,0.0,4.0,52,0.00,,---,0.00,VWS V14.01,2013-02-12 22:13:00,
2013-02-12 16:15:00,48.2,31.9,29.97,NNE,13,2.0,4.0,53,0.00,,---,0.00,VWS V14.01,2013-02-12 22:15:00,
2013-02-12 16:16:00,48.1,31.8,29.97,NNE,13,2.0,4.0,53,0.00,,---,0.00,VWS V14.01,2013-02-12 22:16:00,
2013-02-12 16:17:00,48.2,31.9,29.97,NNE,13,2.0,4.0,53,0.00,,---,0.00,VWS V14.01,2013-02-12 22:17:00,
2013-02-12 16:18:00,48.2,31.9,29.97,NNE,13,1.0,4.0,53,0.00,,---,0.00,VWS V14.01,2013-02-12 22:18:00,
2013-02-12 16:20:00,48.1,32.7,29.97,NNE,13,1.0,4.0,55,0.00,,---,0.00,VWS V14.01,2013-02-12 22:20:00,
2013-02-12 16:22:00,48.0,32.2,29.97,NNE,13,1.0,4.0,54,0.00,,---,0.00,VWS V14.01,2013-02-12 22:22:00,
2013-02-12 16:23:00,48.0,32.2,29.97,NNE,13,1.0,4.0,54,0.00,,---,0.00,VWS V14.01,2013-02-12 22:23:00,
2013-02-12 16:25:00,48.0,32.6,29.97,NNE,13,4.0,5.0,55,0.00,,---,0.00,VWS V14.01,2013-02-12 22:25:00,
2013-02-12 16:27:00,47.9,33.0,29.97,NW,310,3.0,6.0,56,0.00,,---,0.00,VWS V14.01,2013-02-12 22:27:00,
2013-02-12 16:28:00,47.9,32.5,29.97,NW,310,3.0,4.0,55,0.00,,---,0.00,VWS V14.01,2013-02-12 22:28:00,
2013-02-12 16:30:00,47.7,33.2,29.97,NW,321,5.0,6.0,57,0.00,,---,0.00,VWS V14.01,2013-02-12 22:30:00,
2013-02-12 16:33:00,47.6,33.1,29.96,North,354,4.0,6.0,57,0.00,,---,0.00,VWS V14.01,2013-02-12 22:33:00,
2013-02-12 16:36:00,47.5,33.0,29.95,North,358,3.0,7.0,57,0.00,,---,0.00,VWS V14.01,2013-02-12 22:36:00,
2013-02-12 16:38:00,47.4,33.4,29.95,NNW,335,3.0,7.0,58,0.00,,---,0.00,VWS V14.01,2013-02-12 22:38:00,
2013-02-12 16:41:00,47.3,33.3,29.96,NNW,339,3.0,7.0,58,0.00,,---,0.00,VWS V14.01,2013-02-12 22:41:00,
2013-02-12 16:43:00,47.2,33.6,29.96,NNW,335,4.0,7.0,59,0.00,,---,0.00,VWS V14.01,2013-02-12 22:43:00,
2013-02-12 16:46:00,47.2,33.2,29.95,NNW,341,4.0,7.0,58,0.00,,---,0.00,VWS V14.01,2013-02-12 22:46:00,
2013-02-12 16:48:00,47.1,33.5,29.95,NNW,345,4.0,7.0,59,0.00,,---,0.00,VWS V14.01,2013-02-12 22:48:00,
2013-02-12 16:49:00,47.1,33.5,29.95,North,352,5.0,7.0,59,0.00,,---,0.00,VWS V14.01,2013-02-12 22:49:00,
2013-02-12 16:51:00,47.1,33.5,29.94,NNW,348,4.0,7.0,59,0.00,,---,0.00,VWS V14.01,2013-02-12 22:51:00,
2013-02-12 16:53:00,47.0,33.0,29.94,NW,314,4.0,8.0,58,0.00,,---,0.00,VWS V14.01,2013-02-12 22:53:00,
2013-02-12 16:54:00,47.0,33.0,29.94,NNW,341,3.0,8.0,58,0.00,,---,0.00,VWS V14.01,2013-02-12 22:54:00,
2013-02-12 16:56:00,46.9,33.3,29.94,NNW,343,6.0,9.0,59,0.00,,---,0.00,VWS V14.01,2013-02-12 22:56:00,
2013-02-12 16:58:00,46.9,33.3,29.94,NW,325,5.0,6.0,59,0.00,,---,0.00,VWS V14.01,2013-02-12 22:58:00,
2013-02-12 16:59:00,46.9,33.3,29.94,NNW,335,4.0,6.0,59,0.00,,---,0.00,VWS V14.01,2013-02-12 22:59:00,
2013-02-12 17:00:00,46.9,33.3,29.94,NNW,341,6.0,9.0,59,0.00,,---,0.00,VWS V14.01,2013-02-12 23:00:00,
2013-02-12 17:02:00,46.8,33.2,29.94,NNW,330,5.0,8.0,59,0.00,,---,0.00,VWS V14.01,2013-02-12 23:02:00,
2013-02-12 17:03:00,46.7,33.2,29.94,NNE,12,5.0,8.0,59,0.00,,---,0.00,VWS V14.01,2013-02-12 23:03:00,
2013-02-12 17:04:00,46.7,33.2,29.94,North,354,3.0,8.0,59,0.00,,---,0.00,VWS V14.01,2013-02-12 23:04:00,
2013-02-12 17:07:00,46.6,33.5,29.95,North,349,2.0,8.0,60,0.00,,---,0.00,VWS V14.01,2013-02-12 23:07:00,
2013-02-12 17:08:00,46.5,33.0,29.94,NW,325,2.0,8.0,59,0.00,,---,0.00,VWS V14.01,2013-02-12 23:08:00,
2013-02-12 17:09:00,46.5,33.0,29.94,NW,304,3.0,8.0,59,0.00,,---,0.00,VWS V14.01,2013-02-12 23:09:00,
2013-02-12 17:12:00,46.4,33.3,29.94,North,352,1.0,8.0,60,0.00,,---,0.00,VWS V14.01,2013-02-12 23:12:00,
2013-02-12 17:14:00,46.4,33.7,29.94,North,9,4.0,8.0,61,0.00,,---,0.00,VWS V14.01,2013-02-12 23:14:00,
2013-02-12 17:15:00,46.3,32.8,29.94,North,9,3.0,8.0,59,0.00,,---,0.00,VWS V14.01,2013-02-12 23:15:00,
2013-02-12 17:17:00,46.3,33.2,29.94,North,9,2.0,8.0,60,0.00,,---,0.00,VWS V14.01,2013-02-12 23:17:00,
2013-02-12 17:19:00,46.2,33.1,29.94,North,9,3.0,8.0,60,0.00,,---,0.00,VWS V14.01,2013-02-12 23:19:00,
2013-02-12 17:20:00,46.2,33.1,29.94,North,8,3.0,8.0,60,0.00,,---,0.00,VWS V14.01,2013-02-12 23:20:00,
2013-02-12 17:22:00,46.1,33.0,29.94,North,7,3.0,8.0,60,0.00,,---,0.00,VWS V14.01,2013-02-12 23:22:00,
2013-02-12 17:24:00,46.1,33.0,29.94,North,7,3.0,8.0,60,0.00,,---,0.00,VWS V14.01,2013-02-12 23:24:00,
2013-02-12 17:25:00,46.0,33.3,29.94,NNW,330,4.0,8.0,61,0.00,,---,0.00,VWS V14.01,2013-02-12 23:25:00,
2013-02-12 17:27:00,46.0,33.3,29.95,NW,325,1.0,8.0,61,0.00,,---,0.00,VWS V14.01,2013-02-12 23:27:00,
2013-02-12 17:29:00,45.9,33.6,29.95,NW,325,3.0,4.0,62,0.00,,---,0.00,VWS V14.01,2013-02-12 23:29:00,
2013-02-12 17:30:00,45.9,33.6,29.95,NW,325,3.0,4.0,62,0.00,,---,0.00,VWS V14.01,2013-02-12 23:30:00,
2013-02-12 17:32:00,45.8,33.5,29.94,NW,325,1.0,4.0,62,0.00,,---,0.00,VWS V14.01,2013-02-12 23:32:00,
2013-02-12 17:34:00,45.8,33.5,29.94,NW,325,3.0,4.0,62,0.00,,---,0.00,VWS V14.01,2013-02-12 23:34:00,
2013-02-12 17:35:00,45.8,33.5,29.95,NW,325,2.0,4.0,62,0.00,,---,0.00,VWS V14.01,2013-02-12 23:35:00,
2013-02-12 17:37:00,45.6,33.8,29.95,NW,325,4.0,4.0,63,0.00,,---,0.00,VWS V14.01,2013-02-12 23:37:00,
2013-02-12 17:39:00,45.5,33.7,29.94,NW,325,2.0,4.0,63,0.00,,---,0.00,VWS V14.01,2013-02-12 23:39:00,
2013-02-12 17:40:00,45.5,33.7,29.94,NW,325,1.0,4.0,63,0.00,,---,0.00,VWS V14.01,2013-02-12 23:40:00,
2013-02-12 17:42:00,45.4,33.6,29.94,NW,325,3.0,4.0,63,0.00,,---,0.00,VWS V14.01,2013-02-12 23:42:00,
2013-02-12 17:45:00,45.4,34.0,29.94,NW,325,2.0,4.0,64,0.00,,---,0.00,VWS V14.01,2013-02-12 23:45:00,
2013-02-12 17:47:00,45.3,33.9,29.94,NNW,335,4.0,4.0,64,0.00,,---,0.00,VWS V14.01,2013-02-12 23:47:00,
2013-02-12 17:50:00,45.3,33.5,29.93,North,349,2.0,4.0,63,0.00,,---,0.00,VWS V14.01,2013-02-12 23:50:00,
2013-02-12 17:53:00,45.3,33.9,29.93,North,7,3.0,5.0,64,0.00,,---,0.00,VWS V14.01,2013-02-12 23:53:00,
2013-02-12 17:55:00,45.3,33.9,29.92,NNW,346,3.0,5.0,64,0.00,,---,0.00,VWS V14.01,2013-02-12 23:55:00,
2013-02-12 17:58:00,45.3,33.9,29.92,NW,325,4.0,4.0,64,0.00,,---,0.00,VWS V14.01,2013-02-12 23:58:00,
2013-02-12 18:00:00,45.2,34.2,29.93,WNW,285,2.0,5.0,65,0.00,,---,0.00,VWS V14.01,2013-02-13 00:00:00,
2013-02-12 18:03:00,45.2,33.8,29.93,NW,307,2.0,5.0,64,0.00,,---,0.00,VWS V14.01,2013-02-13 00:03:00,
2013-02-12 18:05:00,45.2,33.8,29.93,NNW,339,2.0,5.0,64,0.00,,---,0.00,VWS V14.01,2013-02-13 00:05:00,
2013-02-12 18:06:00,45.1,33.7,29.93,NNW,339,2.0,5.0,64,0.00,,---,0.00,VWS V14.01,2013-02-13 00:06:00,
2013-02-12 18:08:00,45.1,34.0,29.93,NNW,339,1.0,5.0,65,0.00,,---,0.00,VWS V14.01,2013-02-13 00:08:00,
2013-02-12 18:10:00,45.1,34.0,29.93,NNW,339,1.0,5.0,65,0.00,,---,0.00,VWS V14.01,2013-02-13 00:10:00,
2013-02-12 18:11:00,45.0,34.0,29.93,NNW,339,2.0,5.0,65,0.00,,---,0.00,VWS V14.01,2013-02-13 00:11:00,
2013-02-12 18:14:00,44.9,34.2,29.92,NNW,339,3.0,5.0,66,0.00,,---,0.00,VWS V14.01,2013-02-13 00:14:00,
2013-02-12 18:15:00,44.9,34.2,29.92,NNW,339,2.0,5.0,66,0.00,,---,0.00,VWS V14.01,2013-02-13 00:15:00,
2013-02-12 18:16:00,44.9,34.2,29.92,NNW,339,2.0,5.0,66,0.00,,---,0.00,VWS V14.01,2013-02-13 00:16:00,
2013-02-12 18:19:00,44.8,34.2,29.92,NNW,339,2.0,5.0,66,0.00,,---,0.00,VWS V14.01,2013-02-13 00:19:00,
2013-02-12 18:21:00,44.7,34.0,29.92,NNW,339,2.0,5.0,66,0.00,,---,0.00,VWS V14.01,2013-02-13 00:21:00,
2013-02-12 18:24:00,44.7,34.0,29.92,NNW,339,3.0,5.0,66,0.00,,---,0.00,VWS V14.01,2013-02-13 00:24:00,
2013-02-12 18:26:00,44.7,34.4,29.92,NNW,339,2.0,5.0,67,0.00,,---,0.00,VWS V14.01,2013-02-13 00:26:00,
2013-02-12 18:29:00,44.6,34.3,29.92,NNW,339,0.0,2.0,67,0.00,,---,0.00,VWS V14.01,2013-02-13 00:29:00,
2013-02-12 18:30:00,44.6,34.3,29.92,NNW,339,1.0,5.0,67,0.00,,---,0.00,VWS V14.01,2013-02-13 00:30:00,
2013-02-12 18:31:00,44.5,34.2,29.93,NNW,339,1.0,2.0,67,0.00,,---,0.00,VWS V14.01,2013-02-13 00:31:00,
2013-02-12 18:34:00,44.5,34.2,29.92,NNW,339,2.0,3.0,67,0.00,,---,0.00,VWS V14.01,2013-02-13 00:34:00,
2013-02-12 18:36:00,44.5,34.2,29.93,NNW,339,0.0,3.0,67,0.00,,---,0.00,VWS V14.01,2013-02-13 00:36:00,
2013-02-12 18:39:00,44.4,34.5,29.93,NNW,339,0.0,3.0,68,0.00,,---,0.00,VWS V14.01,2013-02-13 00:39:00,
2013-02-12 18:41:00,44.3,34.4,29.93,NNW,339,0.0,3.0,68,0.00,,---,0.00,VWS V14.01,2013-02-13 00:41:00,
2013-02-12 18:42:00,44.3,34.4,29.93,NNW,339,0.0,3.0,68,0.00,,---,0.00,VWS V14.01,2013-02-13 00:42:00,
2013-02-12 18:45:00,44.3,34.0,29.93,NNW,339,0.0,3.0,67,0.00,,---,0.00,VWS V14.01,2013-02-13 00:45:00,
2013-02-12 18:46:00,44.3,34.0,29.93,NNW,339,0.0,3.0,67,0.00,,---,0.00,VWS V14.01,2013-02-13 00:46:00,
2013-02-12 18:47:00,44.3,34.0,29.93,NNW,339,0.0,3.0,67,0.00,,---,0.00,VWS V14.01,2013-02-13 00:47:00,
2013-02-12 18:50:00,44.3,34.4,29.93,NNW,339,0.0,3.0,68,0.00,,---,0.00,VWS V14.01,2013-02-13 00:50:00,
2013-02-12 18:52:00,44.3,34.4,29.93,NNW,339,0.0,3.0,68,0.00,,---,0.00,VWS V14.01,2013-02-13 00:52:00,
2013-02-12 18:55:00,44.1,34.2,29.93,NNW,339,1.0,3.0,68,0.00,,---,0.00,VWS V14.01,2013-02-13 00:55:00,
2013-02-12 18:57:00,44.2,34.3,29.93,NNW,339,1.0,3.0,68,0.00,,---,0.00,VWS V14.01,2013-02-13 00:57:00,
2013-02-12 19:00:00,44.1,34.2,29.93,NNW,339,0.0,1.0,68,0.00,,---,0.00,VWS V14.01,2013-02-13 01:00:00,
2013-02-12 19:02:00,44.1,34.2,29.93,NNW,339,1.0,1.0,68,0.00,,---,0.00,VWS V14.01,2013-02-13 01:02:00,
2013-02-12 19:06:00,44.0,34.5,29.92,NNW,339,1.0,2.0,69,0.00,,---,0.00,VWS V14.01,2013-02-13 01:06:00,
2013-02-12 19:07:00,43.9,34.4,29.92,NNW,339,2.0,2.0,69,0.00,,---,0.00,VWS V14.01,2013-02-13 01:07:00,
2013-02-12 19:11:00,43.8,34.7,29.92,NNW,339,0.0,3.0,70,0.00,,---,0.00,VWS V14.01,2013-02-13 01:11:00,
2013-02-12 19:12:00,43.8,34.7,29.93,NNW,339,1.0,3.0,70,0.00,,---,0.00,VWS V14.01,2013-02-13 01:12:00,
2013-02-12 19:13:00,43.8,34.7,29.93,NNW,339,1.0,3.0,70,0.00,,---,0.00,VWS V14.01,2013-02-13 01:13:00,
2013-02-12 19:16:00,43.8,34.3,29.93,NNW,339,0.0,3.0,69,0.00,,---,0.00,VWS V14.01,2013-02-13 01:16:00,
2013-02-12 19:17:00,43.8,34.7,29.92,NNW,339,1.0,3.0,70,0.00,,---,0.00,VWS V14.01,2013-02-13 01:17:00,
2013-02-12 19:18:00,43.8,34.7,29.92,NNW,339,2.0,3.0,70,0.00,,---,0.00,VWS V14.01,2013-02-13 01:18:00,
2013-02-12 19:21:00,43.8,34.3,29.92,NNW,339,2.0,3.0,69,0.00,,---,0.00,VWS V14.01,2013-02-13 01:21:00,
2013-02-12 19:23:00,43.8,34.3,29.92,NNW,339,2.0,3.0,69,0.00,,---,0.00,VWS V14.01,2013-02-13 01:23:00,
2013-02-12 19:26:00,43.7,34.6,29.92,NNW,339,2.0,3.0,70,0.00,,---,0.00,VWS V14.01,2013-02-13 01:26:00,
2013-02-12 19:28:00,43.7,34.6,29.91,NNW,339,1.0,2.0,70,0.00,,---,0.00,VWS V14.01,2013-02-13 01:28:00,
2013-02-12 19:30:00,43.7,34.6,29.91,NNW,339,2.0,3.0,70,0.00,,---,0.00,VWS V14.01,2013-02-13 01:30:00,
2013-02-12 19:31:00,43.7,34.2,29.91,NNW,339,2.0,4.0,69,0.00,,---,0.00,VWS V14.01,2013-02-13 01:31:00,
2013-02-12 19:33:00,43.7,34.2,29.91,NNW,339,3.0,4.0,69,0.00,,---,0.00,VWS V14.01,2013-02-13 01:33:00,
2013-02-12 19:36:00,43.7,34.6,29.92,NNW,339,1.0,4.0,70,0.00,,---,0.00,VWS V14.01,2013-02-13 01:36:00,
2013-02-12 19:38:00,43.7,34.6,29.91,NNW,339,4.0,4.0,70,0.00,,---,0.00,VWS V14.01,2013-02-13 01:38:00,
2013-02-12 19:42:00,43.6,34.1,29.91,NNW,339,3.0,5.0,69,0.00,,---,0.00,VWS V14.01,2013-02-13 01:42:00,
2013-02-12 19:43:00,43.7,34.6,29.91,NNW,339,2.0,5.0,70,0.00,,---,0.00,VWS V14.01,2013-02-13 01:43:00,
2013-02-12 19:47:00,43.6,34.5,29.90,NNW,339,4.0,5.0,70,0.00,,---,0.00,VWS V14.01,2013-02-13 01:47:00,
2013-02-12 19:48:00,43.6,34.5,29.90,NNW,339,3.0,5.0,70,0.00,,---,0.00,VWS V14.01,2013-02-13 01:48:00,
2013-02-12 19:52:00,43.6,34.5,29.90,NNW,339,2.0,5.0,70,0.00,,---,0.00,VWS V14.01,2013-02-13 01:52:00,
2013-02-12 19:53:00,43.6,34.5,29.90,NNW,339,3.0,5.0,70,0.00,,---,0.00,VWS V14.01,2013-02-13 01:53:00,
2013-02-12 19:54:00,43.6,34.5,29.90,NNW,339,2.0,5.0,70,0.00,,---,0.00,VWS V14.01,2013-02-13 01:54:00,
2013-02-12 19:57:00,43.5,34.4,29.90,NNW,339,2.0,5.0,70,0.00,,---,0.00,VWS V14.01,2013-02-13 01:57:00,
2013-02-12 19:58:00,43.5,34.7,29.90,NNW,339,3.0,4.0,71,0.00,,---,0.00,VWS V14.01,2013-02-13 01:58:00,
2013-02-12 19:59:00,43.5,34.7,29.89,NNW,339,3.0,4.0,71,0.00,,---,0.00,VWS V14.01,2013-02-13 01:59:00,
2013-02-12 20:00:00,43.5,34.4,29.90,NNW,339,3.0,5.0,70,0.00,,---,0.00,VWS V14.01,2013-02-13 02:00:00,
2013-02-12 20:03:00,43.4,34.3,29.89,NNW,339,5.0,5.0,70,0.00,,---,0.00,VWS V14.01,2013-02-13 02:03:00,
2013-02-12 20:04:00,43.5,34.4,29.89,NNW,343,4.0,5.0,70,0.00,,---,0.00,VWS V14.01,2013-02-13 02:04:00,
2013-02-12 20:08:00,43.5,34.4,29.89,NNW,339,2.0,5.0,70,0.00,,---,0.00,VWS V14.01,2013-02-13 02:08:00,
2013-02-12 20:09:00,43.5,34.7,29.89,NNW,339,3.0,5.0,71,0.00,,---,0.00,VWS V14.01,2013-02-13 02:09:00,
2013-02-12 20:13:00,43.3,34.5,29.89,NNW,339,3.0,5.0,71,0.00,,---,0.00,VWS V14.01,2013-02-13 02:13:00,
2013-02-12 20:14:00,43.3,34.5,29.89,NNW,339,4.0,5.0,71,0.00,,---,0.00,VWS V14.01,2013-02-13 02:14:00,
2013-02-12 20:19:00,43.3,34.5,29.89,NNW,330,3.0,6.0,71,0.00,,---,0.00,VWS V14.01,2013-02-13 02:19:00,
2013-02-12 20:24:00,43.4,34.3,29.89,NW,310,4.0,6.0,70,0.00,,---,0.00,VWS V14.01,2013-02-13 02:24:00,
2013-02-12 20:29:00,43.4,34.3,29.89,NW,325,4.0,6.0,70,0.00,,---,0.00,VWS V14.01,2013-02-13 02:29:00,
2013-02-12 20:30:00,43.4,34.3,29.89,NNW,330,6.0,7.0,70,0.00,,---,0.00,VWS V14.01,2013-02-13 02:30:00,
2013-02-12 20:34:00,43.4,34.6,29.89,NNW,330,2.0,6.0,71,0.00,,---,0.00,VWS V14.01,2013-02-13 02:34:00,
2013-02-12 20:35:00,43.4,34.6,29.89,NNW,330,4.0,6.0,71,0.00,,---,0.00,VWS V14.01,2013-02-13 02:35:00,
2013-02-12 20:39:00,43.3,34.5,29.89,NW,325,4.0,6.0,71,0.00,,---,0.00,VWS V14.01,2013-02-13 02:39:00,
2013-02-12 20:40:00,43.3,34.5,29.89,NW,313,4.0,6.0,71,0.00,,---,0.00,VWS V14.01,2013-02-13 02:40:00,
2013-02-12 20:44:00,43.2,34.5,29.89,NW,316,4.0,7.0,71,0.00,,---,0.00,VWS V14.01,2013-02-13 02:44:00,
2013-02-12 20:45:00,43.2,34.5,29.89,NW,313,4.0,7.0,71,0.00,,---,0.00,VWS V14.01,2013-02-13 02:45:00,
2013-02-12 20:49:00,43.2,34.1,29.89,NW,319,2.0,7.0,70,0.00,,---,0.00,VWS V14.01,2013-02-13 02:49:00,
2013-02-12 20:50:00,43.2,34.1,29.89,NW,319,2.0,7.0,70,0.00,,---,0.00,VWS V14.01,2013-02-13 02:50:00,
2013-02-12 20:54:00,43.1,34.3,29.89,NW,319,3.0,7.0,71,0.00,,---,0.00,VWS V14.01,2013-02-13 02:54:00,
2013-02-12 20:55:00,43.1,34.3,29.89,NW,319,2.0,7.0,71,0.00,,---,0.00,VWS V14.01,2013-02-13 02:55:00,
2013-02-12 20:56:00,43.1,34.3,29.89,WNW,301,6.0,7.0,71,0.00,,---,0.00,VWS V14.01,2013-02-13 02:56:00,
2013-02-12 21:00:00,43.1,34.0,29.89,NW,314,2.0,5.0,70,0.00,,---,0.00,VWS V14.01,2013-02-13 03:00:00,
2013-02-12 21:01:00,43.0,34.2,29.89,NW,314,4.0,5.0,71,0.00,,---,0.00,VWS V14.01,2013-02-13 03:01:00,
2013-02-12 21:05:00,42.9,34.2,29.89,NW,312,3.0,5.0,71,0.00,,---,0.00,VWS V14.01,2013-02-13 03:05:00,
2013-02-12 21:06:00,42.9,34.2,29.88,NW,319,5.0,6.0,71,0.00,,---,0.00,VWS V14.01,2013-02-13 03:06:00,
2013-02-12 21:07:00,42.8,34.1,29.88,NW,319,5.0,6.0,71,0.00,,---,0.00,VWS V14.01,2013-02-13 03:07:00,
2013-02-12 21:10:00,42.8,34.1,29.88,NW,309,6.0,6.0,71,0.00,,---,0.00,VWS V14.01,2013-02-13 03:10:00,
2013-02-12 21:11:00,42.8,34.4,29.88,NW,310,3.0,7.0,72,0.00,,---,0.00,VWS V14.01,2013-02-13 03:11:00,
2013-02-12 21:12:00,42.8,34.4,29.88,NW,309,5.0,7.0,72,0.00,,---,0.00,VWS V14.01,2013-02-13 03:12:00,
2013-02-12 21:15:00,42.7,34.3,29.88,NW,305,4.0,8.0,72,0.00,,---,0.00,VWS V14.01,2013-02-13 03:15:00,
2013-02-12 21:16:00,42.7,34.3,29.88,WNW,301,3.0,8.0,72,0.00,,---,0.00,VWS V14.01,2013-02-13 03:16:00,
2013-02-12 21:17:00,42.7,34.3,29.88,WNW,293,5.0,8.0,72,0.00,,---,0.00,VWS V14.01,2013-02-13 03:17:00,
2013-02-12 21:20:00,42.8,34.1,29.88,WNW,303,5.0,8.0,71,0.00,,---,0.00,VWS V14.01,2013-02-13 03:20:00,
2013-02-12 21:21:00,42.8,34.1,29.88,WNW,302,4.0,8.0,71,0.00,,---,0.00,VWS V14.01,2013-02-13 03:21:00,
2013-02-12 21:22:00,42.8,34.1,29.88,WNW,293,5.0,8.0,71,0.00,,---,0.00,VWS V14.01,2013-02-13 03:22:00,
2013-02-12 21:25:00,42.8,34.1,29.88,NW,307,8.0,10.0,71,0.00,,---,0.00,VWS V14.01,2013-02-13 03:25:00,
2013-02-12 21:26:00,42.8,34.1,29.88,WNW,301,8.0,10.0,71,0.00,,---,0.00,VWS V14.01,2013-02-13 03:26:00,
2013-02-12 21:27:00,42.8,34.1,29.88,NW,312,5.0,10.0,71,0.00,,---,0.00,VWS V14.01,2013-02-13 03:27:00,
2013-02-12 21:28:00,42.9,34.2,29.87,NW,312,5.0,5.0,71,0.00,,---,0.00,VWS V14.01,2013-02-13 03:28:00,
2013-02-12 21:30:00,42.8,34.1,29.88,NW,312,5.0,10.0,71,0.00,,---,0.00,VWS V14.01,2013-02-13 03:30:00,
2013-02-12 21:31:00,42.8,34.4,29.87,WNW,293,6.0,10.0,72,0.00,,---,0.00,VWS V14.01,2013-02-13 03:31:00,
2013-02-12 21:32:00,42.8,34.4,29.87,WNW,302,3.0,10.0,72,0.00,,---,0.00,VWS V14.01,2013-02-13 03:32:00,
2013-02-12 21:34:00,42.7,34.3,29.88,NW,311,7.0,10.0,72,0.00,,---,0.00,VWS V14.01,2013-02-13 03:34:00,
2013-02-12 21:36:00,42.7,34.3,29.88,NNW,330,5.0,10.0,72,0.00,,---,0.00,VWS V14.01,2013-02-13 03:36:00,
2013-02-12 21:37:00,42.7,34.3,29.88,WNW,291,2.0,10.0,72,0.00,,---,0.00,VWS V14.01,2013-02-13 03:37:00,
2013-02-12 21:39:00,42.7,34.3,29.88,WNW,299,6.0,10.0,72,0.00,,---,0.00,VWS V14.01,2013-02-13 03:39:00,
2013-02-12 21:41:00,42.7,34.0,29.88,WNW,299,4.0,10.0,71,0.00,,---,0.00,VWS V14.01,2013-02-13 03:41:00,
2013-02-12 21:42:00,42.7,34.0,29.88,NW,325,6.0,10.0,71,0.00,,---,0.00,VWS V14.01,2013-02-13 03:42:00,
2013-02-12 21:44:00,42.8,34.1,29.88,NW,318,5.0,10.0,71,0.00,,---,0.00,VWS V14.01,2013-02-13 03:44:00,
2013-02-12 21:46:00,42.8,34.1,29.88,WNW,290,6.0,10.0,71,0.00,,---,0.00,VWS V14.01,2013-02-13 03:46:00,
2013-02-12 21:48:00,42.7,34.0,29.88,NW,325,7.0,10.0,71,0.00,,---,0.00,VWS V14.01,2013-02-13 03:48:00,
2013-02-12 21:49:00,42.8,34.1,29.88,NW,319,6.0,10.0,71,0.00,,---,0.00,VWS V14.01,2013-02-13 03:49:00,
2013-02-12 21:51:00,42.8,34.1,29.88,NNW,330,4.0,10.0,71,0.00,,---,0.00,VWS V14.01,2013-02-13 03:51:00,
2013-02-12 21:53:00,42.8,34.4,29.88,NNW,330,4.0,10.0,72,0.00,,---,0.00,VWS V14.01,2013-02-13 03:53:00,
2013-02-12 21:54:00,42.7,34.3,29.88,NNW,335,4.0,10.0,72,0.00,,---,0.00,VWS V14.01,2013-02-13 03:54:00,
2013-02-12 21:56:00,42.7,34.3,29.88,NNW,335,3.0,10.0,72,0.00,,---,0.00,VWS V14.01,2013-02-13 03:56:00,
2013-02-12 21:58:00,42.7,34.3,29.89,NNW,335,2.0,2.0,72,0.00,,---,0.00,VWS V14.01,2013-02-13 03:58:00,
2013-02-12 22:00:00,42.7,34.3,29.89,NNW,335,2.0,4.0,72,0.00,,---,0.00,VWS V14.01,2013-02-13 04:00:00,
2013-02-12 22:01:00,42.7,34.3,29.89,NNW,335,3.0,4.0,72,0.00,,---,0.00,VWS V14.01,2013-02-13 04:01:00,
2013-02-12 22:03:00,42.6,34.2,29.88,NNW,335,3.0,4.0,72,0.00,,---,0.00,VWS V14.01,2013-02-13 04:03:00,
2013-02-12 22:05:00,42.6,34.2,29.89,NNW,335,3.0,4.0,72,0.00,,---,0.00,VWS V14.01,2013-02-13 04:05:00,
2013-02-12 22:06:00,42.5,34.1,29.88,NNW,335,3.0,4.0,72,0.00,,---,0.00,VWS V14.01,2013-02-13 04:06:00,
2013-02-12 22:07:00,42.6,34.2,29.88,NNW,335,3.0,4.0,72,0.00,,---,0.00,VWS V14.01,2013-02-13 04:07:00,
2013-02-12 22:08:00,42.5,34.1,29.88,NNW,335,3.0,6.0,72,0.00,,---,0.00,VWS V14.01,2013-02-13 04:08:00,
2013-02-12 22:10:00,42.5,34.1,29.88,NNW,335,3.0,6.0,72,0.00,,---,0.00,VWS V14.01,2013-02-13 04:10:00,
2013-02-12 22:12:00,42.5,34.1,29.88,NNW,335,3.0,6.0,72,0.00,,---,0.00,VWS V14.01,2013-02-13 04:12:00,
2013-02-12 22:13:00,42.5,34.5,29.88,NNW,335,4.0,6.0,73,0.00,,---,0.00,VWS V14.01,2013-02-13 04:13:00,
2013-02-12 22:14:00,42.5,34.1,29.88,NNW,335,4.0,6.0,72,0.00,,---,0.00,VWS V14.01,2013-02-13 04:14:00,
2013-02-12 22:15:00,42.5,34.1,29.89,NNW,335,4.0,6.0,72,0.00,,---,0.00,VWS V14.01,2013-02-13 04:15:00,
2013-02-12 22:17:00,42.5,34.1,29.88,NNW,335,3.0,6.0,72,0.00,,---,0.00,VWS V14.01,2013-02-13 04:17:00,
2013-02-12 22:18:00,42.5,34.1,29.88,NNW,330,5.0,6.0,72,0.00,,---,0.00,VWS V14.01,2013-02-13 04:18:00,
2013-02-12 22:19:00,42.5,34.1,29.88,NNW,330,4.0,6.0,72,0.00,,---,0.00,VWS V14.01,2013-02-13 04:19:00,
2013-02-12 22:20:00,42.5,34.1,29.88,NW,325,5.0,6.0,72,0.00,,---,0.00,VWS V14.01,2013-02-13 04:20:00,
2013-02-12 22:22:00,42.5,34.1,29.88,NW,309,6.0,8.0,72,0.00,,---,0.00,VWS V14.01,2013-02-13 04:22:00,
2013-02-12 22:23:00,42.5,34.1,29.88,WNW,303,5.0,8.0,72,0.00,,---,0.00,VWS V14.01,2013-02-13 04:23:00,
2013-02-12 22:24:00,42.6,34.2,29.88,NW,315,4.0,9.0,72,0.00,,---,0.00,VWS V14.01,2013-02-13 04:24:00,
2013-02-12 22:26:00,42.6,34.2,29.88,NW,312,5.0,9.0,72,0.00,,---,0.00,VWS V14.01,2013-02-13 04:26:00,
2013-02-12 22:27:00,42.6,34.2,29.88,NW,316,7.0,9.0,72,0.00,,---,0.00,VWS V14.01,2013-02-13 04:27:00,
2013-02-12 22:28:00,42.6,34.2,29.88,NW,312,4.0,7.0,72,0.00,,---,0.00,VWS V14.01,2013-02-13 04:28:00,
2013-02-12 22:30:00,42.6,33.9,29.88,NW,318,7.0,8.0,71,0.00,,---,0.00,VWS V14.01,2013-02-13 04:30:00,
2013-02-12 22:31:00,42.6,33.9,29.88,NNW,335,5.0,8.0,71,0.00,,---,0.00,VWS V14.01,2013-02-13 04:31:00,
2013-02-12 22:32:00,42.7,34.0,29.88,NW,325,2.0,8.0,71,0.00,,---,0.00,VWS V14.01,2013-02-13 04:32:00,
2013-02-12 22:33:00,42.7,34.0,29.88,NW,325,4.0,8.0,71,0.00,,---,0.00,VWS V14.01,2013-02-13 04:33:00,
2013-02-12 22:35:00,42.7,34.0,29.88,WNW,301,3.0,8.0,71,0.00,,---,0.00,VWS V14.01,2013-02-13 04:35:00,
2013-02-12 22:36:00,42.7,34.0,29.88,WNW,303,2.0,8.0,71,0.00,,---,0.00,VWS V14.01,2013-02-13 04:36:00,
2013-02-12 22:37:00,42.7,34.0,29.88,NW,311,4.0,8.0,71,0.00,,---,0.00,VWS V14.01,2013-02-13 04:37:00,
2013-02-12 22:38:00,42.7,34.0,29.87,NW,312,3.0,8.0,71,0.00,,---,0.00,VWS V14.01,2013-02-13 04:38:00,
2013-02-12 22:40:00,42.7,34.0,29.87,WNW,299,6.0,8.0,71,0.00,,---,0.00,VWS V14.01,2013-02-13 04:40:00,
2013-02-12 22:41:00,42.6,33.9,29.87,NW,315,5.0,8.0,71,0.00,,---,0.00,VWS V14.01,2013-02-13 04:41:00,
2013-02-12 22:43:00,42.6,33.9,29.87,WNW,299,5.0,8.0,71,0.00,,---,0.00,VWS V14.01,2013-02-13 04:43:00,
2013-02-12 22:45:00,42.6,33.9,29.87,WNW,300,4.0,8.0,71,0.00,,---,0.00,VWS V14.01,2013-02-13 04:45:00,
2013-02-12 22:46:00,42.6,33.9,29.87,NNW,330,7.0,8.0,71,0.00,,---,0.00,VWS V14.01,2013-02-13 04:46:00,
2013-02-12 22:48:00,42.6,33.9,29.87,NW,311,5.0,8.0,71,0.00,,---,0.00,VWS V14.01,2013-02-13 04:48:00,
2013-02-12 22:49:00,42.6,33.9,29.87,NW,307,4.0,8.0,71,0.00,,---,0.00,VWS V14.01,2013-02-13 04:49:00,
2013-02-12 22:50:00,42.6,33.9,29.87,WNW,299,5.0,9.0,71,0.00,,---,0.00,VWS V14.01,2013-02-13 04:50:00,
2013-02-12 22:51:00,42.6,33.9,29.87,WNW,299,4.0,9.0,71,0.00,,---,0.00,VWS V14.01,2013-02-13 04:51:00,
2013-02-12 22:54:00,42.6,34.2,29.87,NW,310,5.0,9.0,72,0.00,,---,0.00,VWS V14.01,2013-02-13 04:54:00,
2013-02-12 22:56:00,42.5,33.8,29.87,NW,308,3.0,9.0,71,0.00,,---,0.00,VWS V14.01,2013-02-13 04:56:00,
2013-02-12 22:59:00,42.4,34.0,29.87,NW,308,3.0,5.0,72,0.00,,---,0.00,VWS V14.01,2013-02-13 04:59:00,
2013-02-12 23:00:00,42.4,34.0,29.87,NW,308,4.0,5.0,72,0.00,,---,0.00,VWS V14.01,2013-02-13 05:00:00,
2013-02-12 23:05:00,42.3,33.9,29.88,WNW,303,3.0,5.0,72,0.00,,---,0.00,VWS V14.01,2013-02-13 05:05:00,
2013-02-12 23:10:00,42.1,34.1,29.87,WNW,303,4.0,6.0,73,0.00,,---,0.00,VWS V14.01,2013-02-13 05:10:00,
2013-02-12 23:15:00,42.1,34.1,29.87,WNW,297,6.0,7.0,73,0.00,,---,0.00,VWS V14.01,2013-02-13 05:15:00,
2013-02-12 23:16:00,42.0,34.0,29.86,WNW,298,4.0,7.0,73,0.00,,---,0.00,VWS V14.01,2013-02-13 05:16:00,
2013-02-12 23:20:00,42.0,34.3,29.87,NW,308,5.0,8.0,74,0.00,,---,0.00,VWS V14.01,2013-02-13 05:20:00,
2013-02-12 23:21:00,42.0,34.3,29.87,WNW,294,6.0,8.0,74,0.00,,---,0.00,VWS V14.01,2013-02-13 05:21:00,
2013-02-12 23:25:00,42.0,34.0,29.87,NW,305,6.0,8.0,73,0.00,,---,0.00,VWS V14.01,2013-02-13 05:25:00,
2013-02-12 23:26:00,42.0,34.0,29.87,WNW,302,2.0,8.0,73,0.00,,---,0.00,VWS V14.01,2013-02-13 05:26:00,
2013-02-12 23:30:00,42.0,34.0,29.87,WNW,303,4.0,5.0,73,0.00,,---,0.00,VWS V14.01,2013-02-13 05:30:00,
2013-02-12 23:31:00,42.0,34.0,29.87,WNW,303,1.0,5.0,73,0.00,,---,0.00,VWS V14.01,2013-02-13 05:31:00,
2013-02-12 23:35:00,42.0,34.0,29.87,WNW,291,2.0,5.0,73,0.00,,---,0.00,VWS V14.01,2013-02-13 05:35:00,
2013-02-12 23:36:00,42.0,34.0,29.87,WNW,291,1.0,5.0,73,0.00,,---,0.00,VWS V14.01,2013-02-13 05:36:00,
2013-02-12 23:40:00,42.1,34.1,29.87,WNW,291,3.0,5.0,73,0.00,,---,0.00,VWS V14.01,2013-02-13 05:40:00,
2013-02-12 23:41:00,42.0,34.0,29.87,WNW,291,2.0,5.0,73,0.00,,---,0.00,VWS V14.01,2013-02-13 05:41:00,
2013-02-12 23:42:00,42.1,34.1,29.87,WNW,291,3.0,5.0,73,0.00,,---,0.00,VWS V14.01,2013-02-13 05:42:00,
2013-02-12 23:46:00,42.0,34.0,29.87,WNW,291,4.0,5.0,73,0.00,,---,0.00,VWS V14.01,2013-02-13 05:46:00,
2013-02-12 23:47:00,42.0,34.3,29.87,NW,308,5.0,8.0,74,0.00,,---,0.00,VWS V14.01,2013-02-13 05:47:00,
2013-02-12 23:51:00,42.0,34.3,29.86,NW,306,3.0,8.0,74,0.00,,---,0.00,VWS V14.01,2013-02-13 05:51:00,
2013-02-12 23:52:00,42.0,34.3,29.86,NW,306,4.0,8.0,74,0.00,,---,0.00,VWS V14.01,2013-02-13 05:52:00,
2013-02-12 23:56:00,42.0,34.0,29.86,WNW,301,4.0,8.0,73,0.00,,---,0.00,VWS V14.01,2013-02-13 05:56:00,
2013-02-12 23:57:00,42.0,34.0,29.86,NW,304,2.0,8.0,73,0.00,,---,0.00,VWS V14.01,2013-02-13 05:57:00,